<?xml version="1.0" encoding="UTF-8" standalone="no" ?>
<gpx xmlns="http://www.topografix.com/GPX/1/1" xmlns:xsi="http://www.w3.org/2001/XMLSchema-instance" xsi:schemaLocation="http://www.topografix.com/GPX/1/1 http://www.topografix.com/GPX/1/1/gpx.xsd" version="1.1" creator="VisuGPX - https://www.visugpx.com">
  <metadata>
    <name>2022-10-03 13:57</name>
    <desc><![CDATA[File with points/tracks from Locus Map/4.12.0]]></desc>
  </metadata>
  <trk>
    <name><![CDATA[2022-10-03 13:57]]></name>
    <extensions>
      <line xmlns="http://www.topografix.com/GPX/gpx_style/0/2">
        <color>0000FF</color>
        <opacity>0.59</opacity>
        <width>6.0</width>
      </line>
    </extensions>
    <trkseg>
      <trkpt lat="49.50312" lon="3.60989">
        <ele>79.56</ele>
        <time>2022-10-03T11:57:45.000Z</time>
      </trkpt>
      <trkpt lat="49.50311" lon="3.60993">
        <ele>79.56</ele>
        <time>2022-10-03T11:57:55.000Z</time>
      </trkpt>
      <trkpt lat="49.50314" lon="3.60991">
        <ele>79.56</ele>
        <time>2022-10-03T11:58:04.066Z</time>
      </trkpt>
      <trkpt lat="49.50314" lon="3.6099">
        <ele>79.56</ele>
        <time>2022-10-03T11:58:28.000Z</time>
      </trkpt>
      <trkpt lat="49.50322" lon="3.61005">
        <ele>79.56</ele>
        <time>2022-10-03T11:59:29.000Z</time>
      </trkpt>
      <trkpt lat="49.50325" lon="3.61012">
        <ele>79.56</ele>
        <time>2022-10-03T11:59:39.000Z</time>
      </trkpt>
      <trkpt lat="49.50323" lon="3.61008">
        <ele>79.56</ele>
        <time>2022-10-03T12:00:37.000Z</time>
      </trkpt>
      <trkpt lat="49.50321" lon="3.61002">
        <ele>79.56</ele>
        <time>2022-10-03T12:00:47.000Z</time>
      </trkpt>
      <trkpt lat="49.50323" lon="3.61002">
        <ele>79.56</ele>
        <time>2022-10-03T12:00:57.000Z</time>
      </trkpt>
      <trkpt lat="49.50322" lon="3.61">
        <ele>79.56</ele>
        <time>2022-10-03T12:01:09.000Z</time>
      </trkpt>
      <trkpt lat="49.50319" lon="3.60997">
        <ele>79.56</ele>
        <time>2022-10-03T12:01:19.000Z</time>
      </trkpt>
      <trkpt lat="49.50319" lon="3.61">
        <ele>78.86</ele>
        <time>2022-10-03T12:01:29.000Z</time>
      </trkpt>
      <trkpt lat="49.50315" lon="3.61">
        <ele>79.56</ele>
        <time>2022-10-03T12:01:39.000Z</time>
      </trkpt>
      <trkpt lat="49.50318" lon="3.60995">
        <ele>79.56</ele>
        <time>2022-10-03T12:01:49.000Z</time>
      </trkpt>
      <trkpt lat="49.50323" lon="3.60996">
        <ele>79.56</ele>
        <time>2022-10-03T12:01:59.000Z</time>
      </trkpt>
      <trkpt lat="49.50322" lon="3.60996">
        <ele>78.86</ele>
        <time>2022-10-03T12:02:33.000Z</time>
      </trkpt>
      <trkpt lat="49.5032" lon="3.60998">
        <ele>79.56</ele>
        <time>2022-10-03T12:02:44.000Z</time>
      </trkpt>
      <trkpt lat="49.50321" lon="3.60999">
        <ele>79.56</ele>
        <time>2022-10-03T12:02:59.000Z</time>
      </trkpt>
      <trkpt lat="49.50323" lon="3.61001">
        <ele>78.86</ele>
        <time>2022-10-03T12:03:09.000Z</time>
      </trkpt>
      <trkpt lat="49.50325" lon="3.61002">
        <ele>79.56</ele>
        <time>2022-10-03T12:03:19.000Z</time>
      </trkpt>
      <trkpt lat="49.50326" lon="3.61002">
        <ele>78.86</ele>
        <time>2022-10-03T12:03:29.000Z</time>
      </trkpt>
      <trkpt lat="49.5032" lon="3.61003">
        <ele>78.86</ele>
        <time>2022-10-03T12:03:39.000Z</time>
      </trkpt>
      <trkpt lat="49.50323" lon="3.61005">
        <ele>79.55</ele>
        <time>2022-10-03T12:03:49.000Z</time>
      </trkpt>
      <trkpt lat="49.50329" lon="3.61009">
        <ele>78.86</ele>
        <time>2022-10-03T12:03:59.000Z</time>
      </trkpt>
      <trkpt lat="49.50329" lon="3.61003">
        <ele>78.86</ele>
        <time>2022-10-03T12:04:09.000Z</time>
      </trkpt>
      <trkpt lat="49.50325" lon="3.61006">
        <ele>79.55</ele>
        <time>2022-10-03T12:04:19.000Z</time>
      </trkpt>
      <trkpt lat="49.50324" lon="3.61007">
        <ele>79.56</ele>
        <time>2022-10-03T12:04:29.000Z</time>
      </trkpt>
      <trkpt lat="49.50324" lon="3.61006">
        <ele>78.86</ele>
        <time>2022-10-03T12:04:42.000Z</time>
      </trkpt>
      <trkpt lat="49.50325" lon="3.61007">
        <ele>78.86</ele>
        <time>2022-10-03T12:04:54.000Z</time>
      </trkpt>
      <trkpt lat="49.5034" lon="3.61017">
        <ele>79.38</ele>
        <time>2022-10-03T12:05:04.000Z</time>
      </trkpt>
      <trkpt lat="49.50345" lon="3.61017">
        <ele>79.56</ele>
        <time>2022-10-03T12:05:14.000Z</time>
      </trkpt>
      <trkpt lat="49.50353" lon="3.61032">
        <ele>79.56</ele>
        <time>2022-10-03T12:05:24.000Z</time>
      </trkpt>
      <trkpt lat="49.50354" lon="3.61041">
        <ele>79.56</ele>
        <time>2022-10-03T12:05:34.000Z</time>
      </trkpt>
      <trkpt lat="49.50358" lon="3.6106">
        <ele>79.56</ele>
        <time>2022-10-03T12:05:44.000Z</time>
      </trkpt>
      <trkpt lat="49.50364" lon="3.61078">
        <ele>79.56</ele>
        <time>2022-10-03T12:05:53.728Z</time>
      </trkpt>
      <trkpt lat="49.50366" lon="3.61092">
        <ele>79.56</ele>
        <time>2022-10-03T12:06:04.000Z</time>
      </trkpt>
      <trkpt lat="49.50365" lon="3.61102">
        <ele>78.46</ele>
        <time>2022-10-03T12:06:14.106Z</time>
      </trkpt>
      <trkpt lat="49.50368" lon="3.6111">
        <ele>78.46</ele>
        <time>2022-10-03T12:06:24.000Z</time>
      </trkpt>
      <trkpt lat="49.50374" lon="3.61114">
        <ele>78.46</ele>
        <time>2022-10-03T12:06:34.000Z</time>
      </trkpt>
      <trkpt lat="49.50383" lon="3.61115">
        <ele>78.46</ele>
        <time>2022-10-03T12:06:44.027Z</time>
      </trkpt>
      <trkpt lat="49.5039" lon="3.61117">
        <ele>78.46</ele>
        <time>2022-10-03T12:06:54.000Z</time>
      </trkpt>
      <trkpt lat="49.50401" lon="3.61117">
        <ele>78.46</ele>
        <time>2022-10-03T12:07:03.548Z</time>
      </trkpt>
      <trkpt lat="49.50406" lon="3.61127">
        <ele>78.46</ele>
        <time>2022-10-03T12:07:12.646Z</time>
      </trkpt>
      <trkpt lat="49.50413" lon="3.61138">
        <ele>78.46</ele>
        <time>2022-10-03T12:07:22.000Z</time>
      </trkpt>
      <trkpt lat="49.50413" lon="3.61147">
        <ele>81.06</ele>
        <time>2022-10-03T12:07:32.000Z</time>
      </trkpt>
      <trkpt lat="49.50424" lon="3.61148">
        <ele>81.06</ele>
        <time>2022-10-03T12:07:41.627Z</time>
      </trkpt>
      <trkpt lat="49.5043" lon="3.61155">
        <ele>81.06</ele>
        <time>2022-10-03T12:07:50.886Z</time>
      </trkpt>
      <trkpt lat="49.50425" lon="3.61178">
        <ele>81.06</ele>
        <time>2022-10-03T12:07:59.929Z</time>
      </trkpt>
      <trkpt lat="49.50428" lon="3.61199">
        <ele>81.06</ele>
        <time>2022-10-03T12:08:09.000Z</time>
      </trkpt>
      <trkpt lat="49.50432" lon="3.61213">
        <ele>81.06</ele>
        <time>2022-10-03T12:08:19.106Z</time>
      </trkpt>
      <trkpt lat="49.50433" lon="3.61229">
        <ele>81.06</ele>
        <time>2022-10-03T12:08:28.647Z</time>
      </trkpt>
      <trkpt lat="49.50437" lon="3.61252">
        <ele>81.05</ele>
        <time>2022-10-03T12:08:37.906Z</time>
      </trkpt>
      <trkpt lat="49.5044" lon="3.61263">
        <ele>81.05</ele>
        <time>2022-10-03T12:08:47.000Z</time>
      </trkpt>
      <trkpt lat="49.50445" lon="3.61275">
        <ele>81.05</ele>
        <time>2022-10-03T12:08:57.000Z</time>
      </trkpt>
      <trkpt lat="49.50449" lon="3.61284">
        <ele>81.05</ele>
        <time>2022-10-03T12:09:07.000Z</time>
      </trkpt>
      <trkpt lat="49.50453" lon="3.61299">
        <ele>100.5</ele>
        <time>2022-10-03T12:09:16.567Z</time>
      </trkpt>
      <trkpt lat="49.50454" lon="3.61325">
        <ele>84.5</ele>
        <time>2022-10-03T12:09:25.907Z</time>
      </trkpt>
      <trkpt lat="49.50456" lon="3.61346">
        <ele>83.35</ele>
        <time>2022-10-03T12:09:35.407Z</time>
      </trkpt>
      <trkpt lat="49.50458" lon="3.61364">
        <ele>83.35</ele>
        <time>2022-10-03T12:09:45.000Z</time>
      </trkpt>
      <trkpt lat="49.50462" lon="3.61378">
        <ele>83.35</ele>
        <time>2022-10-03T12:09:55.000Z</time>
      </trkpt>
      <trkpt lat="49.50467" lon="3.6139">
        <ele>83.35</ele>
        <time>2022-10-03T12:10:04.024Z</time>
      </trkpt>
      <trkpt lat="49.50473" lon="3.61403">
        <ele>83.35</ele>
        <time>2022-10-03T12:10:13.424Z</time>
      </trkpt>
      <trkpt lat="49.5048" lon="3.61415">
        <ele>83.35</ele>
        <time>2022-10-03T12:10:22.925Z</time>
      </trkpt>
      <trkpt lat="49.50485" lon="3.6143">
        <ele>83.35</ele>
        <time>2022-10-03T12:10:32.303Z</time>
      </trkpt>
      <trkpt lat="49.50489" lon="3.61446">
        <ele>83.35</ele>
        <time>2022-10-03T12:10:41.743Z</time>
      </trkpt>
      <trkpt lat="49.50492" lon="3.6146">
        <ele>83.35</ele>
        <time>2022-10-03T12:10:51.000Z</time>
      </trkpt>
      <trkpt lat="49.50494" lon="3.61478">
        <ele>8.75</ele>
        <time>2022-10-03T12:11:00.044Z</time>
      </trkpt>
      <trkpt lat="49.50495" lon="3.61494">
        <ele>8.75</ele>
        <time>2022-10-03T12:11:09.324Z</time>
      </trkpt>
      <trkpt lat="49.505" lon="3.61508">
        <ele>8.75</ele>
        <time>2022-10-03T12:11:18.364Z</time>
      </trkpt>
      <trkpt lat="49.50508" lon="3.61524">
        <ele>8.75</ele>
        <time>2022-10-03T12:11:27.903Z</time>
      </trkpt>
      <trkpt lat="49.50517" lon="3.61536">
        <ele>8.75</ele>
        <time>2022-10-03T12:11:37.004Z</time>
      </trkpt>
      <trkpt lat="49.50526" lon="3.61545">
        <ele>8.75</ele>
        <time>2022-10-03T12:11:47.000Z</time>
      </trkpt>
      <trkpt lat="49.50532" lon="3.61559">
        <ele>8.75</ele>
        <time>2022-10-03T12:11:56.084Z</time>
      </trkpt>
      <trkpt lat="49.50535" lon="3.61576">
        <ele>8.75</ele>
        <time>2022-10-03T12:12:06.000Z</time>
      </trkpt>
      <trkpt lat="49.50539" lon="3.61593">
        <ele>8.75</ele>
        <time>2022-10-03T12:12:15.024Z</time>
      </trkpt>
      <trkpt lat="49.50542" lon="3.61609">
        <ele>84.79</ele>
        <time>2022-10-03T12:12:25.000Z</time>
      </trkpt>
      <trkpt lat="49.50545" lon="3.61623">
        <ele>110.39</ele>
        <time>2022-10-03T12:12:34.523Z</time>
      </trkpt>
      <trkpt lat="49.50549" lon="3.61634">
        <ele>110.45</ele>
        <time>2022-10-03T12:12:44.000Z</time>
      </trkpt>
      <trkpt lat="49.50559" lon="3.61643">
        <ele>110.48</ele>
        <time>2022-10-03T12:12:53.303Z</time>
      </trkpt>
      <trkpt lat="49.50562" lon="3.61658">
        <ele>110.19</ele>
        <time>2022-10-03T12:13:02.703Z</time>
      </trkpt>
      <trkpt lat="49.50562" lon="3.61674">
        <ele>109.57</ele>
        <time>2022-10-03T12:13:11.743Z</time>
      </trkpt>
      <trkpt lat="49.5056" lon="3.61688">
        <ele>108.8</ele>
        <time>2022-10-03T12:13:20.963Z</time>
      </trkpt>
      <trkpt lat="49.5056" lon="3.61704">
        <ele>108.07</ele>
        <time>2022-10-03T12:13:30.003Z</time>
      </trkpt>
      <trkpt lat="49.50561" lon="3.61719">
        <ele>107.94</ele>
        <time>2022-10-03T12:13:39.044Z</time>
      </trkpt>
      <trkpt lat="49.50558" lon="3.61732">
        <ele>107.69</ele>
        <time>2022-10-03T12:13:48.363Z</time>
      </trkpt>
      <trkpt lat="49.50557" lon="3.61748">
        <ele>106.99</ele>
        <time>2022-10-03T12:13:57.803Z</time>
      </trkpt>
      <trkpt lat="49.50557" lon="3.61767">
        <ele>106.13</ele>
        <time>2022-10-03T12:14:07.103Z</time>
      </trkpt>
      <trkpt lat="49.5056" lon="3.61786">
        <ele>104.97</ele>
        <time>2022-10-03T12:14:16.494Z</time>
      </trkpt>
      <trkpt lat="49.50562" lon="3.61803">
        <ele>104.24</ele>
        <time>2022-10-03T12:14:26.000Z</time>
      </trkpt>
      <trkpt lat="49.50565" lon="3.61816">
        <ele>103.88</ele>
        <time>2022-10-03T12:14:35.503Z</time>
      </trkpt>
      <trkpt lat="49.50568" lon="3.61826">
        <ele>103.62</ele>
        <time>2022-10-03T12:14:44.610Z</time>
      </trkpt>
      <trkpt lat="49.5057" lon="3.61843">
        <ele>103.44</ele>
        <time>2022-10-03T12:14:54.044Z</time>
      </trkpt>
      <trkpt lat="49.50577" lon="3.61842">
        <ele>102.82</ele>
        <time>2022-10-03T12:15:04.000Z</time>
      </trkpt>
      <trkpt lat="49.50591" lon="3.61857">
        <ele>103.17</ele>
        <time>2022-10-03T12:15:13.323Z</time>
      </trkpt>
      <trkpt lat="49.50591" lon="3.61884">
        <ele>103.72</ele>
        <time>2022-10-03T12:15:23.000Z</time>
      </trkpt>
      <trkpt lat="49.50593" lon="3.61901">
        <ele>104.12</ele>
        <time>2022-10-03T12:15:33.000Z</time>
      </trkpt>
      <trkpt lat="49.50601" lon="3.61926">
        <ele>104.61</ele>
        <time>2022-10-03T12:15:42.497Z</time>
      </trkpt>
      <trkpt lat="49.50605" lon="3.61943">
        <ele>105.3</ele>
        <time>2022-10-03T12:15:51.663Z</time>
      </trkpt>
      <trkpt lat="49.50608" lon="3.61961">
        <ele>105.82</ele>
        <time>2022-10-03T12:16:00.943Z</time>
      </trkpt>
      <trkpt lat="49.50612" lon="3.61977">
        <ele>105.82</ele>
        <time>2022-10-03T12:16:10.203Z</time>
      </trkpt>
      <trkpt lat="49.50611" lon="3.61983">
        <ele>105.71</ele>
        <time>2022-10-03T12:16:20.000Z</time>
      </trkpt>
      <trkpt lat="49.50619" lon="3.61974">
        <ele>105.46</ele>
        <time>2022-10-03T12:16:30.000Z</time>
      </trkpt>
      <trkpt lat="49.50626" lon="3.61971">
        <ele>24.45</ele>
        <time>2022-10-03T12:16:39.064Z</time>
      </trkpt>
      <trkpt lat="49.50633" lon="3.61977">
        <ele>24.45</ele>
        <time>2022-10-03T12:16:48.183Z</time>
      </trkpt>
      <trkpt lat="49.50631" lon="3.61979">
        <ele>24.45</ele>
        <time>2022-10-03T12:16:58.000Z</time>
      </trkpt>
      <trkpt lat="49.50632" lon="3.61984">
        <ele>24.45</ele>
        <time>2022-10-03T12:17:07.525Z</time>
      </trkpt>
      <trkpt lat="49.50625" lon="3.62008">
        <ele>24.45</ele>
        <time>2022-10-03T12:17:16.639Z</time>
      </trkpt>
      <trkpt lat="49.50618" lon="3.62029">
        <ele>24.45</ele>
        <time>2022-10-03T12:17:26.000Z</time>
      </trkpt>
      <trkpt lat="49.50619" lon="3.62052">
        <ele>24.45</ele>
        <time>2022-10-03T12:17:36.000Z</time>
      </trkpt>
      <trkpt lat="49.5062" lon="3.62063">
        <ele>24.45</ele>
        <time>2022-10-03T12:17:45.024Z</time>
      </trkpt>
      <trkpt lat="49.50621" lon="3.62077">
        <ele>24.45</ele>
        <time>2022-10-03T12:17:54.063Z</time>
      </trkpt>
      <trkpt lat="49.50627" lon="3.62095">
        <ele>82.24</ele>
        <time>2022-10-03T12:18:03.423Z</time>
      </trkpt>
      <trkpt lat="49.50632" lon="3.6211">
        <ele>81.13</ele>
        <time>2022-10-03T12:18:12.503Z</time>
      </trkpt>
      <trkpt lat="49.5064" lon="3.62123">
        <ele>81.05</ele>
        <time>2022-10-03T12:18:22.000Z</time>
      </trkpt>
      <trkpt lat="49.50645" lon="3.6214">
        <ele>80.85</ele>
        <time>2022-10-03T12:18:31.525Z</time>
      </trkpt>
      <trkpt lat="49.50654" lon="3.62153">
        <ele>80.85</ele>
        <time>2022-10-03T12:18:41.000Z</time>
      </trkpt>
      <trkpt lat="49.50662" lon="3.62164">
        <ele>81.05</ele>
        <time>2022-10-03T12:18:50.044Z</time>
      </trkpt>
      <trkpt lat="49.50667" lon="3.62178">
        <ele>104.96</ele>
        <time>2022-10-03T12:18:59.083Z</time>
      </trkpt>
      <trkpt lat="49.5067" lon="3.62194">
        <ele>107.23</ele>
        <time>2022-10-03T12:19:08.344Z</time>
      </trkpt>
      <trkpt lat="49.50674" lon="3.62208">
        <ele>81.05</ele>
        <time>2022-10-03T12:19:18.263Z</time>
      </trkpt>
      <trkpt lat="49.50677" lon="3.62223">
        <ele>81.05</ele>
        <time>2022-10-03T12:19:28.000Z</time>
      </trkpt>
      <trkpt lat="49.50681" lon="3.62239">
        <ele>81.05</ele>
        <time>2022-10-03T12:19:37.284Z</time>
      </trkpt>
      <trkpt lat="49.50685" lon="3.62253">
        <ele>83.95</ele>
        <time>2022-10-03T12:19:46.498Z</time>
      </trkpt>
      <trkpt lat="49.50691" lon="3.62266">
        <ele>84.15</ele>
        <time>2022-10-03T12:19:57.000Z</time>
      </trkpt>
      <trkpt lat="49.50691" lon="3.62283">
        <ele>84.15</ele>
        <time>2022-10-03T12:20:06.525Z</time>
      </trkpt>
      <trkpt lat="49.50691" lon="3.62299">
        <ele>84.05</ele>
        <time>2022-10-03T12:20:16.000Z</time>
      </trkpt>
      <trkpt lat="49.50695" lon="3.62317">
        <ele>81.75</ele>
        <time>2022-10-03T12:20:25.024Z</time>
      </trkpt>
      <trkpt lat="49.50697" lon="3.62334">
        <ele>84.14</ele>
        <time>2022-10-03T12:20:35.000Z</time>
      </trkpt>
      <trkpt lat="49.50699" lon="3.62349">
        <ele>84.15</ele>
        <time>2022-10-03T12:20:44.525Z</time>
      </trkpt>
      <trkpt lat="49.50699" lon="3.62363">
        <ele>84.15</ele>
        <time>2022-10-03T12:20:54.000Z</time>
      </trkpt>
      <trkpt lat="49.50698" lon="3.6238">
        <ele>84.15</ele>
        <time>2022-10-03T12:21:04.004Z</time>
      </trkpt>
      <trkpt lat="49.50698" lon="3.62395">
        <ele>80.85</ele>
        <time>2022-10-03T12:21:13.804Z</time>
      </trkpt>
      <trkpt lat="49.50697" lon="3.6241">
        <ele>84.14</ele>
        <time>2022-10-03T12:21:23.503Z</time>
      </trkpt>
      <trkpt lat="49.50697" lon="3.62426">
        <ele>86.64</ele>
        <time>2022-10-03T12:21:33.000Z</time>
      </trkpt>
      <trkpt lat="49.50697" lon="3.62444">
        <ele>86.64</ele>
        <time>2022-10-03T12:21:42.383Z</time>
      </trkpt>
      <trkpt lat="49.50698" lon="3.62461">
        <ele>81.39</ele>
        <time>2022-10-03T12:21:51.404Z</time>
      </trkpt>
      <trkpt lat="49.50699" lon="3.62475">
        <ele>86.56</ele>
        <time>2022-10-03T12:22:00.703Z</time>
      </trkpt>
      <trkpt lat="49.50699" lon="3.62488">
        <ele>86.64</ele>
        <time>2022-10-03T12:22:10.052Z</time>
      </trkpt>
      <trkpt lat="49.50698" lon="3.62504">
        <ele>86.64</ele>
        <time>2022-10-03T12:22:19.252Z</time>
      </trkpt>
      <trkpt lat="49.50698" lon="3.62516">
        <ele>86.64</ele>
        <time>2022-10-03T12:22:29.000Z</time>
      </trkpt>
      <trkpt lat="49.50703" lon="3.6253">
        <ele>86.64</ele>
        <time>2022-10-03T12:22:38.072Z</time>
      </trkpt>
      <trkpt lat="49.50701" lon="3.62544">
        <ele>86.64</ele>
        <time>2022-10-03T12:22:48.312Z</time>
      </trkpt>
      <trkpt lat="49.50697" lon="3.62543">
        <ele>86.64</ele>
        <time>2022-10-03T12:22:58.000Z</time>
      </trkpt>
      <trkpt lat="49.50697" lon="3.62546">
        <ele>86.64</ele>
        <time>2022-10-03T12:23:07.513Z</time>
      </trkpt>
      <trkpt lat="49.50686" lon="3.62554">
        <ele>86.64</ele>
        <time>2022-10-03T12:23:16.932Z</time>
      </trkpt>
      <trkpt lat="49.50677" lon="3.62562">
        <ele>86.64</ele>
        <time>2022-10-03T12:23:26.212Z</time>
      </trkpt>
      <trkpt lat="49.50685" lon="3.6257">
        <ele>86.64</ele>
        <time>2022-10-03T12:23:35.433Z</time>
      </trkpt>
      <trkpt lat="49.50687" lon="3.62593">
        <ele>86.64</ele>
        <time>2022-10-03T12:23:45.000Z</time>
      </trkpt>
      <trkpt lat="49.50688" lon="3.62614">
        <ele>86.64</ele>
        <time>2022-10-03T12:23:54.392Z</time>
      </trkpt>
      <trkpt lat="49.50689" lon="3.62631">
        <ele>89.64</ele>
        <time>2022-10-03T12:24:03.632Z</time>
      </trkpt>
      <trkpt lat="49.50691" lon="3.62651">
        <ele>89.64</ele>
        <time>2022-10-03T12:24:12.951Z</time>
      </trkpt>
      <trkpt lat="49.50691" lon="3.62675">
        <ele>89.64</ele>
        <time>2022-10-03T12:24:22.332Z</time>
      </trkpt>
      <trkpt lat="49.50691" lon="3.62693">
        <ele>89.74</ele>
        <time>2022-10-03T12:24:32.000Z</time>
      </trkpt>
      <trkpt lat="49.50697" lon="3.6271">
        <ele>89.74</ele>
        <time>2022-10-03T12:24:42.000Z</time>
      </trkpt>
      <trkpt lat="49.50695" lon="3.62729">
        <ele>91.47</ele>
        <time>2022-10-03T12:24:51.432Z</time>
      </trkpt>
      <trkpt lat="49.50691" lon="3.62747">
        <ele>92.04</ele>
        <time>2022-10-03T12:25:00.951Z</time>
      </trkpt>
      <trkpt lat="49.50689" lon="3.6276">
        <ele>92.04</ele>
        <time>2022-10-03T12:25:10.000Z</time>
      </trkpt>
      <trkpt lat="49.50692" lon="3.62777">
        <ele>92.24</ele>
        <time>2022-10-03T12:25:19.091Z</time>
      </trkpt>
      <trkpt lat="49.50692" lon="3.62793">
        <ele>92.74</ele>
        <time>2022-10-03T12:25:28.311Z</time>
      </trkpt>
      <trkpt lat="49.50689" lon="3.62809">
        <ele>92.74</ele>
        <time>2022-10-03T12:25:38.131Z</time>
      </trkpt>
      <trkpt lat="49.50691" lon="3.62816">
        <ele>92.74</ele>
        <time>2022-10-03T12:25:47.313Z</time>
      </trkpt>
      <trkpt lat="49.50689" lon="3.62827">
        <ele>92.74</ele>
        <time>2022-10-03T12:25:57.271Z</time>
      </trkpt>
      <trkpt lat="49.50688" lon="3.62849">
        <ele>92.74</ele>
        <time>2022-10-03T12:26:07.291Z</time>
      </trkpt>
      <trkpt lat="49.50686" lon="3.6287">
        <ele>92.74</ele>
        <time>2022-10-03T12:26:16.512Z</time>
      </trkpt>
      <trkpt lat="49.50682" lon="3.62881">
        <ele>92.74</ele>
        <time>2022-10-03T12:26:26.192Z</time>
      </trkpt>
      <trkpt lat="49.50684" lon="3.62888">
        <ele>92.74</ele>
        <time>2022-10-03T12:26:35.631Z</time>
      </trkpt>
      <trkpt lat="49.50689" lon="3.62899">
        <ele>92.74</ele>
        <time>2022-10-03T12:26:45.000Z</time>
      </trkpt>
      <trkpt lat="49.50694" lon="3.62913">
        <ele>92.74</ele>
        <time>2022-10-03T12:26:54.251Z</time>
      </trkpt>
      <trkpt lat="49.50697" lon="3.62932">
        <ele>92.74</ele>
        <time>2022-10-03T12:27:03.332Z</time>
      </trkpt>
      <trkpt lat="49.50701" lon="3.62949">
        <ele>92.74</ele>
        <time>2022-10-03T12:27:12.494Z</time>
      </trkpt>
      <trkpt lat="49.50713" lon="3.62954">
        <ele>92.74</ele>
        <time>2022-10-03T12:27:22.431Z</time>
      </trkpt>
      <trkpt lat="49.50732" lon="3.62938">
        <ele>116.64</ele>
        <time>2022-10-03T12:27:32.000Z</time>
      </trkpt>
      <trkpt lat="49.50746" lon="3.62929">
        <ele>115.99</ele>
        <time>2022-10-03T12:27:42.000Z</time>
      </trkpt>
      <trkpt lat="49.50753" lon="3.62914">
        <ele>116.18</ele>
        <time>2022-10-03T12:27:52.000Z</time>
      </trkpt>
      <trkpt lat="49.50761" lon="3.62903">
        <ele>115.96</ele>
        <time>2022-10-03T12:28:01.531Z</time>
      </trkpt>
      <trkpt lat="49.5077" lon="3.62895">
        <ele>115.96</ele>
        <time>2022-10-03T12:28:11.512Z</time>
      </trkpt>
      <trkpt lat="49.5078" lon="3.6289">
        <ele>115.54</ele>
        <time>2022-10-03T12:28:20.693Z</time>
      </trkpt>
      <trkpt lat="49.50789" lon="3.62886">
        <ele>114.75</ele>
        <time>2022-10-03T12:28:30.000Z</time>
      </trkpt>
      <trkpt lat="49.50804" lon="3.62881">
        <ele>114.01</ele>
        <time>2022-10-03T12:28:40.000Z</time>
      </trkpt>
      <trkpt lat="49.50818" lon="3.62873">
        <ele>88.34</ele>
        <time>2022-10-03T12:28:50.000Z</time>
      </trkpt>
      <trkpt lat="49.50831" lon="3.62866">
        <ele>88.34</ele>
        <time>2022-10-03T12:28:59.491Z</time>
      </trkpt>
      <trkpt lat="49.50842" lon="3.62857">
        <ele>88.34</ele>
        <time>2022-10-03T12:29:08.912Z</time>
      </trkpt>
      <trkpt lat="49.50853" lon="3.62848">
        <ele>88.34</ele>
        <time>2022-10-03T12:29:18.351Z</time>
      </trkpt>
      <trkpt lat="49.50862" lon="3.6284">
        <ele>88.34</ele>
        <time>2022-10-03T12:29:27.481Z</time>
      </trkpt>
      <trkpt lat="49.50871" lon="3.62836">
        <ele>88.34</ele>
        <time>2022-10-03T12:29:37.000Z</time>
      </trkpt>
      <trkpt lat="49.50877" lon="3.6283">
        <ele>88.34</ele>
        <time>2022-10-03T12:29:46.351Z</time>
      </trkpt>
      <trkpt lat="49.50888" lon="3.62822">
        <ele>88.34</ele>
        <time>2022-10-03T12:29:55.693Z</time>
      </trkpt>
      <trkpt lat="49.50901" lon="3.62816">
        <ele>88.34</ele>
        <time>2022-10-03T12:30:05.352Z</time>
      </trkpt>
      <trkpt lat="49.50913" lon="3.62808">
        <ele>109.71</ele>
        <time>2022-10-03T12:30:14.491Z</time>
      </trkpt>
      <trkpt lat="49.50922" lon="3.62801">
        <ele>109.54</ele>
        <time>2022-10-03T12:30:24.032Z</time>
      </trkpt>
      <trkpt lat="49.50929" lon="3.62791">
        <ele>108.81</ele>
        <time>2022-10-03T12:30:34.000Z</time>
      </trkpt>
      <trkpt lat="49.50935" lon="3.62786">
        <ele>108.64</ele>
        <time>2022-10-03T12:30:43.891Z</time>
      </trkpt>
      <trkpt lat="49.50941" lon="3.62785">
        <ele>108.87</ele>
        <time>2022-10-03T12:30:53.231Z</time>
      </trkpt>
      <trkpt lat="49.50952" lon="3.62787">
        <ele>109.31</ele>
        <time>2022-10-03T12:31:03.000Z</time>
      </trkpt>
      <trkpt lat="49.50965" lon="3.62785">
        <ele>109.44</ele>
        <time>2022-10-03T12:31:13.000Z</time>
      </trkpt>
      <trkpt lat="49.50976" lon="3.62781">
        <ele>109.56</ele>
        <time>2022-10-03T12:31:22.312Z</time>
      </trkpt>
      <trkpt lat="49.50985" lon="3.62776">
        <ele>109.79</ele>
        <time>2022-10-03T12:31:31.414Z</time>
      </trkpt>
      <trkpt lat="49.50995" lon="3.62772">
        <ele>81.64</ele>
        <time>2022-10-03T12:31:41.312Z</time>
      </trkpt>
      <trkpt lat="49.5101" lon="3.62771">
        <ele>81.64</ele>
        <time>2022-10-03T12:31:52.000Z</time>
      </trkpt>
      <trkpt lat="49.51009" lon="3.62787">
        <ele>81.64</ele>
        <time>2022-10-03T12:32:01.231Z</time>
      </trkpt>
      <trkpt lat="49.51004" lon="3.62799">
        <ele>81.64</ele>
        <time>2022-10-03T12:32:10.492Z</time>
      </trkpt>
      <trkpt lat="49.51" lon="3.62811">
        <ele>81.64</ele>
        <time>2022-10-03T12:32:20.000Z</time>
      </trkpt>
      <trkpt lat="49.50996" lon="3.62826">
        <ele>81.64</ele>
        <time>2022-10-03T12:32:29.097Z</time>
      </trkpt>
      <trkpt lat="49.50995" lon="3.62841">
        <ele>81.64</ele>
        <time>2022-10-03T12:32:39.000Z</time>
      </trkpt>
      <trkpt lat="49.50993" lon="3.62851">
        <ele>81.64</ele>
        <time>2022-10-03T12:32:48.598Z</time>
      </trkpt>
      <trkpt lat="49.50991" lon="3.62858">
        <ele>81.64</ele>
        <time>2022-10-03T12:32:58.000Z</time>
      </trkpt>
      <trkpt lat="49.50989" lon="3.62863">
        <ele>81.64</ele>
        <time>2022-10-03T12:33:07.338Z</time>
      </trkpt>
      <trkpt lat="49.50988" lon="3.62875">
        <ele>81.64</ele>
        <time>2022-10-03T12:33:16.498Z</time>
      </trkpt>
      <trkpt lat="49.50987" lon="3.62888">
        <ele>117.41</ele>
        <time>2022-10-03T12:33:26.279Z</time>
      </trkpt>
      <trkpt lat="49.50988" lon="3.62898">
        <ele>117.8</ele>
        <time>2022-10-03T12:33:36.000Z</time>
      </trkpt>
      <trkpt lat="49.5099" lon="3.62901">
        <ele>118.56</ele>
        <time>2022-10-03T12:33:45.058Z</time>
      </trkpt>
      <trkpt lat="49.50994" lon="3.62903">
        <ele>119.24</ele>
        <time>2022-10-03T12:33:54.158Z</time>
      </trkpt>
      <trkpt lat="49.51005" lon="3.62901">
        <ele>118.46</ele>
        <time>2022-10-03T12:34:03.761Z</time>
      </trkpt>
      <trkpt lat="49.51018" lon="3.62903">
        <ele>117.09</ele>
        <time>2022-10-03T12:34:12.957Z</time>
      </trkpt>
      <trkpt lat="49.51028" lon="3.62899">
        <ele>115.19</ele>
        <time>2022-10-03T12:34:22.218Z</time>
      </trkpt>
      <trkpt lat="49.51032" lon="3.62904">
        <ele>113.95</ele>
        <time>2022-10-03T12:34:31.278Z</time>
      </trkpt>
      <trkpt lat="49.51042" lon="3.62911">
        <ele>113.29</ele>
        <time>2022-10-03T12:34:40.438Z</time>
      </trkpt>
      <trkpt lat="49.51055" lon="3.62921">
        <ele>112.15</ele>
        <time>2022-10-03T12:34:49.658Z</time>
      </trkpt>
      <trkpt lat="49.51063" lon="3.62919">
        <ele>110.03</ele>
        <time>2022-10-03T12:34:59.178Z</time>
      </trkpt>
      <trkpt lat="49.51071" lon="3.62913">
        <ele>107.45</ele>
        <time>2022-10-03T12:35:08.558Z</time>
      </trkpt>
      <trkpt lat="49.5108" lon="3.62911">
        <ele>105.57</ele>
        <time>2022-10-03T12:35:18.000Z</time>
      </trkpt>
      <trkpt lat="49.51087" lon="3.62915">
        <ele>104.05</ele>
        <time>2022-10-03T12:35:27.810Z</time>
      </trkpt>
      <trkpt lat="49.51091" lon="3.62917">
        <ele>102.72</ele>
        <time>2022-10-03T12:35:37.000Z</time>
      </trkpt>
      <trkpt lat="49.511" lon="3.62919">
        <ele>100.15</ele>
        <time>2022-10-03T12:35:46.698Z</time>
      </trkpt>
      <trkpt lat="49.51108" lon="3.62913">
        <ele>98.21</ele>
        <time>2022-10-03T12:35:56.000Z</time>
      </trkpt>
      <trkpt lat="49.51119" lon="3.62901">
        <ele>96.05</ele>
        <time>2022-10-03T12:36:06.000Z</time>
      </trkpt>
      <trkpt lat="49.51124" lon="3.62901">
        <ele>83.64</ele>
        <time>2022-10-03T12:36:15.760Z</time>
      </trkpt>
      <trkpt lat="49.51128" lon="3.62906">
        <ele>81.65</ele>
        <time>2022-10-03T12:36:24.813Z</time>
      </trkpt>
      <trkpt lat="49.51133" lon="3.62914">
        <ele>81.64</ele>
        <time>2022-10-03T12:36:34.318Z</time>
      </trkpt>
      <trkpt lat="49.51141" lon="3.62918">
        <ele>82.14</ele>
        <time>2022-10-03T12:36:43.357Z</time>
      </trkpt>
      <trkpt lat="49.51148" lon="3.62921">
        <ele>82.14</ele>
        <time>2022-10-03T12:36:52.598Z</time>
      </trkpt>
      <trkpt lat="49.51161" lon="3.62923">
        <ele>82.14</ele>
        <time>2022-10-03T12:37:01.619Z</time>
      </trkpt>
      <trkpt lat="49.51166" lon="3.62929">
        <ele>83.63</ele>
        <time>2022-10-03T12:37:12.000Z</time>
      </trkpt>
      <trkpt lat="49.51166" lon="3.62933">
        <ele>83.64</ele>
        <time>2022-10-03T12:37:22.000Z</time>
      </trkpt>
      <trkpt lat="49.51165" lon="3.62936">
        <ele>83.64</ele>
        <time>2022-10-03T12:37:32.000Z</time>
      </trkpt>
      <trkpt lat="49.51162" lon="3.62939">
        <ele>83.64</ele>
        <time>2022-10-03T12:37:41.157Z</time>
      </trkpt>
      <trkpt lat="49.51156" lon="3.62943">
        <ele>83.64</ele>
        <time>2022-10-03T12:37:50.814Z</time>
      </trkpt>
      <trkpt lat="49.51166" lon="3.62947">
        <ele>83.64</ele>
        <time>2022-10-03T12:38:01.000Z</time>
      </trkpt>
      <trkpt lat="49.51176" lon="3.62955">
        <ele>83.64</ele>
        <time>2022-10-03T12:38:10.558Z</time>
      </trkpt>
      <trkpt lat="49.51182" lon="3.62964">
        <ele>83.64</ele>
        <time>2022-10-03T12:38:20.559Z</time>
      </trkpt>
      <trkpt lat="49.51192" lon="3.62962">
        <ele>83.64</ele>
        <time>2022-10-03T12:38:29.638Z</time>
      </trkpt>
      <trkpt lat="49.51202" lon="3.6296">
        <ele>90.32</ele>
        <time>2022-10-03T12:38:38.678Z</time>
      </trkpt>
      <trkpt lat="49.51211" lon="3.62972">
        <ele>94.08</ele>
        <time>2022-10-03T12:38:48.718Z</time>
      </trkpt>
      <trkpt lat="49.51221" lon="3.62985">
        <ele>96.41</ele>
        <time>2022-10-03T12:38:58.518Z</time>
      </trkpt>
      <trkpt lat="49.51228" lon="3.62995">
        <ele>98.38</ele>
        <time>2022-10-03T12:39:07.639Z</time>
      </trkpt>
      <trkpt lat="49.51238" lon="3.63003">
        <ele>99.76</ele>
        <time>2022-10-03T12:39:16.679Z</time>
      </trkpt>
      <trkpt lat="49.51249" lon="3.63009">
        <ele>100.94</ele>
        <time>2022-10-03T12:39:26.338Z</time>
      </trkpt>
      <trkpt lat="49.51256" lon="3.63014">
        <ele>102.44</ele>
        <time>2022-10-03T12:39:35.558Z</time>
      </trkpt>
      <trkpt lat="49.51262" lon="3.63025">
        <ele>103.59</ele>
        <time>2022-10-03T12:39:44.661Z</time>
      </trkpt>
      <trkpt lat="49.5127" lon="3.63035">
        <ele>105.43</ele>
        <time>2022-10-03T12:39:54.198Z</time>
      </trkpt>
      <trkpt lat="49.51277" lon="3.63042">
        <ele>106.79</ele>
        <time>2022-10-03T12:40:03.812Z</time>
      </trkpt>
      <trkpt lat="49.51284" lon="3.63047">
        <ele>107.31</ele>
        <time>2022-10-03T12:40:13.277Z</time>
      </trkpt>
      <trkpt lat="49.51291" lon="3.63059">
        <ele>89.34</ele>
        <time>2022-10-03T12:40:23.000Z</time>
      </trkpt>
      <trkpt lat="49.51283" lon="3.63072">
        <ele>89.24</ele>
        <time>2022-10-03T12:40:32.579Z</time>
      </trkpt>
      <trkpt lat="49.51274" lon="3.63089">
        <ele>89.24</ele>
        <time>2022-10-03T12:40:42.817Z</time>
      </trkpt>
      <trkpt lat="49.51264" lon="3.63101">
        <ele>89.24</ele>
        <time>2022-10-03T12:40:52.617Z</time>
      </trkpt>
      <trkpt lat="49.51255" lon="3.63112">
        <ele>89.24</ele>
        <time>2022-10-03T12:41:01.838Z</time>
      </trkpt>
      <trkpt lat="49.51246" lon="3.63126">
        <ele>89.24</ele>
        <time>2022-10-03T12:41:11.439Z</time>
      </trkpt>
      <trkpt lat="49.51238" lon="3.63137">
        <ele>89.24</ele>
        <time>2022-10-03T12:41:20.518Z</time>
      </trkpt>
      <trkpt lat="49.51229" lon="3.63144">
        <ele>89.24</ele>
        <time>2022-10-03T12:41:29.999Z</time>
      </trkpt>
      <trkpt lat="49.51225" lon="3.63148">
        <ele>89.24</ele>
        <time>2022-10-03T12:41:39.218Z</time>
      </trkpt>
      <trkpt lat="49.5122" lon="3.63152">
        <ele>89.24</ele>
        <time>2022-10-03T12:41:48.297Z</time>
      </trkpt>
      <trkpt lat="49.51219" lon="3.6316">
        <ele>108.42</ele>
        <time>2022-10-03T12:41:57.999Z</time>
      </trkpt>
      <trkpt lat="49.51219" lon="3.63181">
        <ele>108.54</ele>
        <time>2022-10-03T12:42:07.718Z</time>
      </trkpt>
      <trkpt lat="49.51217" lon="3.63193">
        <ele>108</ele>
        <time>2022-10-03T12:42:17.819Z</time>
      </trkpt>
      <trkpt lat="49.51216" lon="3.63202">
        <ele>107</ele>
        <time>2022-10-03T12:42:27.999Z</time>
      </trkpt>
      <trkpt lat="49.51215" lon="3.63214">
        <ele>107.07</ele>
        <time>2022-10-03T12:42:37.840Z</time>
      </trkpt>
      <trkpt lat="49.51216" lon="3.63223">
        <ele>107.92</ele>
        <time>2022-10-03T12:42:46.999Z</time>
      </trkpt>
      <trkpt lat="49.51215" lon="3.63234">
        <ele>108.1</ele>
        <time>2022-10-03T12:42:56.400Z</time>
      </trkpt>
      <trkpt lat="49.51214" lon="3.63243">
        <ele>108</ele>
        <time>2022-10-03T12:43:05.738Z</time>
      </trkpt>
      <trkpt lat="49.51211" lon="3.63253">
        <ele>107.64</ele>
        <time>2022-10-03T12:43:15.357Z</time>
      </trkpt>
      <trkpt lat="49.51207" lon="3.63268">
        <ele>107.1</ele>
        <time>2022-10-03T12:43:24.999Z</time>
      </trkpt>
      <trkpt lat="49.51205" lon="3.63277">
        <ele>106.61</ele>
        <time>2022-10-03T12:43:34.698Z</time>
      </trkpt>
      <trkpt lat="49.51203" lon="3.63288">
        <ele>105.56</ele>
        <time>2022-10-03T12:43:43.999Z</time>
      </trkpt>
      <trkpt lat="49.51206" lon="3.63303">
        <ele>104.21</ele>
        <time>2022-10-03T12:43:53.217Z</time>
      </trkpt>
      <trkpt lat="49.51205" lon="3.63307">
        <ele>103.02</ele>
        <time>2022-10-03T12:44:02.999Z</time>
      </trkpt>
      <trkpt lat="49.512" lon="3.63312">
        <ele>102.44</ele>
        <time>2022-10-03T12:44:12.999Z</time>
      </trkpt>
      <trkpt lat="49.51195" lon="3.6332">
        <ele>102.11</ele>
        <time>2022-10-03T12:44:22.619Z</time>
      </trkpt>
      <trkpt lat="49.51189" lon="3.63324">
        <ele>102.56</ele>
        <time>2022-10-03T12:44:31.999Z</time>
      </trkpt>
      <trkpt lat="49.51186" lon="3.63327">
        <ele>103.33</ele>
        <time>2022-10-03T12:44:41.159Z</time>
      </trkpt>
      <trkpt lat="49.51183" lon="3.63334">
        <ele>102.93</ele>
        <time>2022-10-03T12:44:50.838Z</time>
      </trkpt>
      <trkpt lat="49.51178" lon="3.63335">
        <ele>102.59</ele>
        <time>2022-10-03T12:44:59.999Z</time>
      </trkpt>
      <trkpt lat="49.51174" lon="3.63339">
        <ele>101.5</ele>
        <time>2022-10-03T12:45:09.805Z</time>
      </trkpt>
      <trkpt lat="49.5117" lon="3.63342">
        <ele>99.44</ele>
        <time>2022-10-03T12:45:18.979Z</time>
      </trkpt>
      <trkpt lat="49.51163" lon="3.63341">
        <ele>97.07</ele>
        <time>2022-10-03T12:45:28.277Z</time>
      </trkpt>
      <trkpt lat="49.51159" lon="3.63341">
        <ele>93.77</ele>
        <time>2022-10-03T12:45:37.558Z</time>
      </trkpt>
      <trkpt lat="49.51152" lon="3.63337">
        <ele>90.73</ele>
        <time>2022-10-03T12:45:46.999Z</time>
      </trkpt>
      <trkpt lat="49.51147" lon="3.63326">
        <ele>88.92</ele>
        <time>2022-10-03T12:45:56.017Z</time>
      </trkpt>
      <trkpt lat="49.51145" lon="3.63318">
        <ele>87.77</ele>
        <time>2022-10-03T12:46:05.400Z</time>
      </trkpt>
      <trkpt lat="49.51144" lon="3.63311">
        <ele>86.48</ele>
        <time>2022-10-03T12:46:14.498Z</time>
      </trkpt>
      <trkpt lat="49.51139" lon="3.63304">
        <ele>84.92</ele>
        <time>2022-10-03T12:46:23.578Z</time>
      </trkpt>
      <trkpt lat="49.51133" lon="3.63294">
        <ele>83.17</ele>
        <time>2022-10-03T12:46:33.759Z</time>
      </trkpt>
      <trkpt lat="49.51127" lon="3.63284">
        <ele>82.39</ele>
        <time>2022-10-03T12:46:43.999Z</time>
      </trkpt>
      <trkpt lat="49.51125" lon="3.63275">
        <ele>82.48</ele>
        <time>2022-10-03T12:46:53.377Z</time>
      </trkpt>
      <trkpt lat="49.51121" lon="3.63265">
        <ele>82.79</ele>
        <time>2022-10-03T12:47:02.999Z</time>
      </trkpt>
      <trkpt lat="49.51116" lon="3.63252">
        <ele>83.77</ele>
        <time>2022-10-03T12:47:12.738Z</time>
      </trkpt>
      <trkpt lat="49.5111" lon="3.63241">
        <ele>84.95</ele>
        <time>2022-10-03T12:47:22.017Z</time>
      </trkpt>
      <trkpt lat="49.51102" lon="3.63227">
        <ele>87.05</ele>
        <time>2022-10-03T12:47:31.999Z</time>
      </trkpt>
      <trkpt lat="49.51094" lon="3.63213">
        <ele>89.26</ele>
        <time>2022-10-03T12:47:41.999Z</time>
      </trkpt>
      <trkpt lat="49.51083" lon="3.63212">
        <ele>91.63</ele>
        <time>2022-10-03T12:47:51.178Z</time>
      </trkpt>
      <trkpt lat="49.51078" lon="3.63223">
        <ele>95.27</ele>
        <time>2022-10-03T12:48:00.558Z</time>
      </trkpt>
      <trkpt lat="49.5108" lon="3.63237">
        <ele>99.91</ele>
        <time>2022-10-03T12:48:09.999Z</time>
      </trkpt>
      <trkpt lat="49.51083" lon="3.6325">
        <ele>104.51</ele>
        <time>2022-10-03T12:48:19.317Z</time>
      </trkpt>
      <trkpt lat="49.51086" lon="3.63263">
        <ele>109.03</ele>
        <time>2022-10-03T12:48:28.437Z</time>
      </trkpt>
      <trkpt lat="49.51088" lon="3.63277">
        <ele>113.23</ele>
        <time>2022-10-03T12:48:37.539Z</time>
      </trkpt>
      <trkpt lat="49.51089" lon="3.63291">
        <ele>117.11</ele>
        <time>2022-10-03T12:48:46.759Z</time>
      </trkpt>
      <trkpt lat="49.5109" lon="3.63302">
        <ele>121.95</ele>
        <time>2022-10-03T12:48:55.897Z</time>
      </trkpt>
      <trkpt lat="49.51092" lon="3.63312">
        <ele>126.65</ele>
        <time>2022-10-03T12:49:05.097Z</time>
      </trkpt>
      <trkpt lat="49.51092" lon="3.63326">
        <ele>131.88</ele>
        <time>2022-10-03T12:49:14.619Z</time>
      </trkpt>
      <trkpt lat="49.51094" lon="3.63339">
        <ele>136.25</ele>
        <time>2022-10-03T12:49:23.758Z</time>
      </trkpt>
      <trkpt lat="49.51096" lon="3.63348">
        <ele>139.21</ele>
        <time>2022-10-03T12:49:32.999Z</time>
      </trkpt>
      <trkpt lat="49.51098" lon="3.63358">
        <ele>142.55</ele>
        <time>2022-10-03T12:49:42.398Z</time>
      </trkpt>
      <trkpt lat="49.51096" lon="3.63366">
        <ele>145.21</ele>
        <time>2022-10-03T12:49:51.418Z</time>
      </trkpt>
      <trkpt lat="49.51089" lon="3.63365">
        <ele>147.44</ele>
        <time>2022-10-03T12:50:00.697Z</time>
      </trkpt>
      <trkpt lat="49.51087" lon="3.63371">
        <ele>149.13</ele>
        <time>2022-10-03T12:50:09.759Z</time>
      </trkpt>
      <trkpt lat="49.51086" lon="3.63374">
        <ele>150.71</ele>
        <time>2022-10-03T12:50:18.999Z</time>
      </trkpt>
      <trkpt lat="49.51087" lon="3.63373">
        <ele>153.23</ele>
        <time>2022-10-03T12:50:32.999Z</time>
      </trkpt>
      <trkpt lat="49.51085" lon="3.63368">
        <ele>159.7</ele>
        <time>2022-10-03T12:51:01.999Z</time>
      </trkpt>
      <trkpt lat="49.51083" lon="3.63363">
        <ele>162.42</ele>
        <time>2022-10-03T12:51:11.999Z</time>
      </trkpt>
      <trkpt lat="49.51087" lon="3.63365">
        <ele>162.92</ele>
        <time>2022-10-03T12:51:21.999Z</time>
      </trkpt>
      <trkpt lat="49.51085" lon="3.63367">
        <ele>162.84</ele>
        <time>2022-10-03T12:51:31.999Z</time>
      </trkpt>
      <trkpt lat="49.51084" lon="3.63369">
        <ele>162.78</ele>
        <time>2022-10-03T12:51:41.999Z</time>
      </trkpt>
      <trkpt lat="49.51085" lon="3.63369">
        <ele>162.91</ele>
        <time>2022-10-03T12:51:53.999Z</time>
      </trkpt>
      <trkpt lat="49.51089" lon="3.63368">
        <ele>163.41</ele>
        <time>2022-10-03T12:52:03.999Z</time>
      </trkpt>
      <trkpt lat="49.51089" lon="3.6337">
        <ele>164.07</ele>
        <time>2022-10-03T12:52:13.999Z</time>
      </trkpt>
      <trkpt lat="49.51092" lon="3.63367">
        <ele>164.34</ele>
        <time>2022-10-03T12:52:23.999Z</time>
      </trkpt>
      <trkpt lat="49.51091" lon="3.63364">
        <ele>164.14</ele>
        <time>2022-10-03T12:52:33.999Z</time>
      </trkpt>
      <trkpt lat="49.5109" lon="3.63363">
        <ele>164.03</ele>
        <time>2022-10-03T12:52:44.999Z</time>
      </trkpt>
      <trkpt lat="49.51089" lon="3.63363">
        <ele>163.83</ele>
        <time>2022-10-03T12:52:55.999Z</time>
      </trkpt>
      <trkpt lat="49.5109" lon="3.63364">
        <ele>164.14</ele>
        <time>2022-10-03T12:53:09.999Z</time>
      </trkpt>
      <trkpt lat="49.51092" lon="3.63364">
        <ele>164.82</ele>
        <time>2022-10-03T12:53:23.999Z</time>
      </trkpt>
      <trkpt lat="49.51096" lon="3.63367">
        <ele>164.62</ele>
        <time>2022-10-03T12:53:33.999Z</time>
      </trkpt>
      <trkpt lat="49.51087" lon="3.6337">
        <ele>163.96</ele>
        <time>2022-10-03T12:53:43.999Z</time>
      </trkpt>
      <trkpt lat="49.51089" lon="3.63371">
        <ele>163.51</ele>
        <time>2022-10-03T12:53:53.999Z</time>
      </trkpt>
      <trkpt lat="49.51089" lon="3.63363">
        <ele>164.23</ele>
        <time>2022-10-03T12:54:03.999Z</time>
      </trkpt>
      <trkpt lat="49.51091" lon="3.63359">
        <ele>163.2</ele>
        <time>2022-10-03T12:54:13.999Z</time>
      </trkpt>
      <trkpt lat="49.51092" lon="3.63354">
        <ele>162.41</ele>
        <time>2022-10-03T12:54:23.999Z</time>
      </trkpt>
      <trkpt lat="49.511" lon="3.63355">
        <ele>161.25</ele>
        <time>2022-10-03T12:54:33.999Z</time>
      </trkpt>
      <trkpt lat="49.51101" lon="3.63349">
        <ele>160.62</ele>
        <time>2022-10-03T12:54:43.721Z</time>
      </trkpt>
      <trkpt lat="49.51102" lon="3.63339">
        <ele>158.14</ele>
        <time>2022-10-03T12:54:53.481Z</time>
      </trkpt>
      <trkpt lat="49.51099" lon="3.63334">
        <ele>155.51</ele>
        <time>2022-10-03T12:55:02.999Z</time>
      </trkpt>
      <trkpt lat="49.51093" lon="3.63326">
        <ele>152.58</ele>
        <time>2022-10-03T12:55:12.341Z</time>
      </trkpt>
      <trkpt lat="49.51087" lon="3.63318">
        <ele>149.49</ele>
        <time>2022-10-03T12:55:21.999Z</time>
      </trkpt>
      <trkpt lat="49.51085" lon="3.63312">
        <ele>147.06</ele>
        <time>2022-10-03T12:55:31.282Z</time>
      </trkpt>
      <trkpt lat="49.51085" lon="3.63305">
        <ele>144.27</ele>
        <time>2022-10-03T12:55:40.999Z</time>
      </trkpt>
      <trkpt lat="49.51083" lon="3.63303">
        <ele>140.74</ele>
        <time>2022-10-03T12:55:50.143Z</time>
      </trkpt>
      <trkpt lat="49.51081" lon="3.63298">
        <ele>137.16</ele>
        <time>2022-10-03T12:55:59.461Z</time>
      </trkpt>
      <trkpt lat="49.51077" lon="3.63289">
        <ele>132.71</ele>
        <time>2022-10-03T12:56:08.703Z</time>
      </trkpt>
      <trkpt lat="49.5107" lon="3.63278">
        <ele>129.16</ele>
        <time>2022-10-03T12:56:17.999Z</time>
      </trkpt>
      <trkpt lat="49.51067" lon="3.63262">
        <ele>125.72</ele>
        <time>2022-10-03T12:56:27.563Z</time>
      </trkpt>
      <trkpt lat="49.51063" lon="3.63247">
        <ele>123.45</ele>
        <time>2022-10-03T12:56:36.601Z</time>
      </trkpt>
      <trkpt lat="49.51061" lon="3.63238">
        <ele>122.54</ele>
        <time>2022-10-03T12:56:45.999Z</time>
      </trkpt>
      <trkpt lat="49.5106" lon="3.63232">
        <ele>122.04</ele>
        <time>2022-10-03T12:56:55.999Z</time>
      </trkpt>
      <trkpt lat="49.51062" lon="3.63226">
        <ele>122.6</ele>
        <time>2022-10-03T12:57:05.999Z</time>
      </trkpt>
      <trkpt lat="49.5106" lon="3.63225">
        <ele>126.05</ele>
        <time>2022-10-03T12:57:15.562Z</time>
      </trkpt>
      <trkpt lat="49.51058" lon="3.63212">
        <ele>132.74</ele>
        <time>2022-10-03T12:57:24.999Z</time>
      </trkpt>
      <trkpt lat="49.51056" lon="3.63209">
        <ele>136.72</ele>
        <time>2022-10-03T12:57:34.641Z</time>
      </trkpt>
      <trkpt lat="49.51055" lon="3.63204">
        <ele>139.73</ele>
        <time>2022-10-03T12:57:43.999Z</time>
      </trkpt>
      <trkpt lat="49.51055" lon="3.63199">
        <ele>142.11</ele>
        <time>2022-10-03T12:57:53.999Z</time>
      </trkpt>
      <trkpt lat="49.51051" lon="3.63197">
        <ele>143.85</ele>
        <time>2022-10-03T12:58:03.999Z</time>
      </trkpt>
      <trkpt lat="49.51046" lon="3.6319">
        <ele>146.07</ele>
        <time>2022-10-03T12:58:13.462Z</time>
      </trkpt>
      <trkpt lat="49.51044" lon="3.63189">
        <ele>147.87</ele>
        <time>2022-10-03T12:58:22.682Z</time>
      </trkpt>
      <trkpt lat="49.51043" lon="3.63183">
        <ele>149.53</ele>
        <time>2022-10-03T12:58:31.999Z</time>
      </trkpt>
      <trkpt lat="49.51038" lon="3.63186">
        <ele>151.22</ele>
        <time>2022-10-03T12:58:41.761Z</time>
      </trkpt>
      <trkpt lat="49.51037" lon="3.63192">
        <ele>152.16</ele>
        <time>2022-10-03T12:58:50.999Z</time>
      </trkpt>
      <trkpt lat="49.51036" lon="3.63194">
        <ele>153.45</ele>
        <time>2022-10-03T12:59:31.999Z</time>
      </trkpt>
      <trkpt lat="49.5104" lon="3.6319">
        <ele>177.81</ele>
        <time>2022-10-03T13:01:49.999Z</time>
      </trkpt>
      <trkpt lat="49.51046" lon="3.63183">
        <ele>178.54</ele>
        <time>2022-10-03T13:01:59.999Z</time>
      </trkpt>
      <trkpt lat="49.51047" lon="3.63183">
        <ele>180.29</ele>
        <time>2022-10-03T13:02:28.999Z</time>
      </trkpt>
      <trkpt lat="49.51048" lon="3.63184">
        <ele>180.46</ele>
        <time>2022-10-03T13:02:38.999Z</time>
      </trkpt>
      <trkpt lat="49.5105" lon="3.63188">
        <ele>180.22</ele>
        <time>2022-10-03T13:02:48.999Z</time>
      </trkpt>
      <trkpt lat="49.5105" lon="3.6319">
        <ele>179.67</ele>
        <time>2022-10-03T13:02:58.999Z</time>
      </trkpt>
      <trkpt lat="49.51049" lon="3.63189">
        <ele>178.25</ele>
        <time>2022-10-03T13:03:24.999Z</time>
      </trkpt>
      <trkpt lat="49.51048" lon="3.63186">
        <ele>177.99</ele>
        <time>2022-10-03T13:03:34.999Z</time>
      </trkpt>
      <trkpt lat="49.5105" lon="3.63186">
        <ele>177.77</ele>
        <time>2022-10-03T13:03:44.999Z</time>
      </trkpt>
      <trkpt lat="49.5105" lon="3.63186">
        <ele>177.44</ele>
        <time>2022-10-03T13:03:55.999Z</time>
      </trkpt>
      <trkpt lat="49.5105" lon="3.63188">
        <ele>177.01</ele>
        <time>2022-10-03T13:04:08.999Z</time>
      </trkpt>
      <trkpt lat="49.51049" lon="3.63187">
        <ele>176.42</ele>
        <time>2022-10-03T13:04:33.999Z</time>
      </trkpt>
      <trkpt lat="49.5105" lon="3.63187">
        <ele>176.47</ele>
        <time>2022-10-03T13:04:43.999Z</time>
      </trkpt>
      <trkpt lat="49.51049" lon="3.63187">
        <ele>176.41</ele>
        <time>2022-10-03T13:04:53.999Z</time>
      </trkpt>
      <trkpt lat="49.51047" lon="3.63187">
        <ele>176.13</ele>
        <time>2022-10-03T13:05:03.999Z</time>
      </trkpt>
      <trkpt lat="49.51048" lon="3.63185">
        <ele>175.63</ele>
        <time>2022-10-03T13:05:18.999Z</time>
      </trkpt>
      <trkpt lat="49.51047" lon="3.63184">
        <ele>175.6</ele>
        <time>2022-10-03T13:05:28.999Z</time>
      </trkpt>
      <trkpt lat="49.51047" lon="3.63182">
        <ele>174.19</ele>
        <time>2022-10-03T13:05:54.999Z</time>
      </trkpt>
      <trkpt lat="49.51047" lon="3.6318">
        <ele>173.71</ele>
        <time>2022-10-03T13:06:04.999Z</time>
      </trkpt>
      <trkpt lat="49.51046" lon="3.6318">
        <ele>173.38</ele>
        <time>2022-10-03T13:06:14.999Z</time>
      </trkpt>
      <trkpt lat="49.51049" lon="3.6318">
        <ele>173.04</ele>
        <time>2022-10-03T13:06:24.999Z</time>
      </trkpt>
      <trkpt lat="49.5105" lon="3.6318">
        <ele>172.33</ele>
        <time>2022-10-03T13:06:40.999Z</time>
      </trkpt>
      <trkpt lat="49.51047" lon="3.63181">
        <ele>171.39</ele>
        <time>2022-10-03T13:06:50.999Z</time>
      </trkpt>
      <trkpt lat="49.51046" lon="3.63181">
        <ele>170.05</ele>
        <time>2022-10-03T13:07:05.999Z</time>
      </trkpt>
      <trkpt lat="49.51045" lon="3.6318">
        <ele>169.46</ele>
        <time>2022-10-03T13:07:15.999Z</time>
      </trkpt>
      <trkpt lat="49.51043" lon="3.63178">
        <ele>168.59</ele>
        <time>2022-10-03T13:07:25.999Z</time>
      </trkpt>
      <trkpt lat="49.51043" lon="3.63176">
        <ele>167.19</ele>
        <time>2022-10-03T13:07:35.999Z</time>
      </trkpt>
      <trkpt lat="49.51043" lon="3.63174">
        <ele>166.15</ele>
        <time>2022-10-03T13:07:45.999Z</time>
      </trkpt>
      <trkpt lat="49.51044" lon="3.63174">
        <ele>166.08</ele>
        <time>2022-10-03T13:08:10.999Z</time>
      </trkpt>
      <trkpt lat="49.51043" lon="3.63177">
        <ele>166.11</ele>
        <time>2022-10-03T13:08:20.999Z</time>
      </trkpt>
      <trkpt lat="49.51043" lon="3.63179">
        <ele>165.76</ele>
        <time>2022-10-03T13:08:36.999Z</time>
      </trkpt>
      <trkpt lat="49.51043" lon="3.6319">
        <ele>165.7</ele>
        <time>2022-10-03T13:08:46.999Z</time>
      </trkpt>
      <trkpt lat="49.51035" lon="3.63202">
        <ele>166.38</ele>
        <time>2022-10-03T13:08:56.999Z</time>
      </trkpt>
      <trkpt lat="49.51036" lon="3.63212">
        <ele>167.65</ele>
        <time>2022-10-03T13:09:06.999Z</time>
      </trkpt>
      <trkpt lat="49.51039" lon="3.63222">
        <ele>167.66</ele>
        <time>2022-10-03T13:09:16.999Z</time>
      </trkpt>
      <trkpt lat="49.51037" lon="3.63235">
        <ele>166.61</ele>
        <time>2022-10-03T13:09:26.999Z</time>
      </trkpt>
      <trkpt lat="49.51033" lon="3.63246">
        <ele>166.61</ele>
        <time>2022-10-03T13:09:36.540Z</time>
      </trkpt>
      <trkpt lat="49.51026" lon="3.63262">
        <ele>166.11</ele>
        <time>2022-10-03T13:09:45.795Z</time>
      </trkpt>
      <trkpt lat="49.51017" lon="3.63277">
        <ele>165.54</ele>
        <time>2022-10-03T13:09:54.941Z</time>
      </trkpt>
      <trkpt lat="49.51014" lon="3.63288">
        <ele>165.6</ele>
        <time>2022-10-03T13:10:03.999Z</time>
      </trkpt>
      <trkpt lat="49.51012" lon="3.63303">
        <ele>165.35</ele>
        <time>2022-10-03T13:10:13.421Z</time>
      </trkpt>
      <trkpt lat="49.51011" lon="3.63314">
        <ele>165.38</ele>
        <time>2022-10-03T13:10:22.521Z</time>
      </trkpt>
      <trkpt lat="49.51008" lon="3.63325">
        <ele>164.83</ele>
        <time>2022-10-03T13:10:31.999Z</time>
      </trkpt>
      <trkpt lat="49.51008" lon="3.63339">
        <ele>164.4</ele>
        <time>2022-10-03T13:10:41.301Z</time>
      </trkpt>
      <trkpt lat="49.51013" lon="3.6335">
        <ele>163.43</ele>
        <time>2022-10-03T13:10:50.710Z</time>
      </trkpt>
      <trkpt lat="49.51017" lon="3.63362">
        <ele>162.65</ele>
        <time>2022-10-03T13:11:00.750Z</time>
      </trkpt>
      <trkpt lat="49.51028" lon="3.63368">
        <ele>162.34</ele>
        <time>2022-10-03T13:11:09.830Z</time>
      </trkpt>
      <trkpt lat="49.51035" lon="3.63376">
        <ele>160.51</ele>
        <time>2022-10-03T13:11:18.999Z</time>
      </trkpt>
      <trkpt lat="49.51042" lon="3.63384">
        <ele>159.68</ele>
        <time>2022-10-03T13:11:28.049Z</time>
      </trkpt>
      <trkpt lat="49.51051" lon="3.63395">
        <ele>159.27</ele>
        <time>2022-10-03T13:11:37.631Z</time>
      </trkpt>
      <trkpt lat="49.51063" lon="3.63399">
        <ele>162.27</ele>
        <time>2022-10-03T13:11:47.010Z</time>
      </trkpt>
      <trkpt lat="49.51072" lon="3.63408">
        <ele>165.81</ele>
        <time>2022-10-03T13:11:56.590Z</time>
      </trkpt>
      <trkpt lat="49.51079" lon="3.63421">
        <ele>170.9</ele>
        <time>2022-10-03T13:12:05.949Z</time>
      </trkpt>
      <trkpt lat="49.51083" lon="3.63434">
        <ele>175.22</ele>
        <time>2022-10-03T13:12:15.149Z</time>
      </trkpt>
      <trkpt lat="49.51086" lon="3.63447">
        <ele>179.77</ele>
        <time>2022-10-03T13:12:24.170Z</time>
      </trkpt>
      <trkpt lat="49.51082" lon="3.63464">
        <ele>185.29</ele>
        <time>2022-10-03T13:12:33.999Z</time>
      </trkpt>
      <trkpt lat="49.51082" lon="3.63476">
        <ele>190.06</ele>
        <time>2022-10-03T13:12:43.389Z</time>
      </trkpt>
      <trkpt lat="49.51079" lon="3.63487">
        <ele>193.72</ele>
        <time>2022-10-03T13:12:52.830Z</time>
      </trkpt>
      <trkpt lat="49.51074" lon="3.63495">
        <ele>197.13</ele>
        <time>2022-10-03T13:13:02.171Z</time>
      </trkpt>
      <trkpt lat="49.51066" lon="3.63511">
        <ele>197.84</ele>
        <time>2022-10-03T13:13:11.691Z</time>
      </trkpt>
      <trkpt lat="49.51052" lon="3.63537">
        <ele>197.15</ele>
        <time>2022-10-03T13:13:21.749Z</time>
      </trkpt>
      <trkpt lat="49.51044" lon="3.63554">
        <ele>195.13</ele>
        <time>2022-10-03T13:13:30.750Z</time>
      </trkpt>
      <trkpt lat="49.51039" lon="3.6357">
        <ele>192.65</ele>
        <time>2022-10-03T13:13:40.730Z</time>
      </trkpt>
      <trkpt lat="49.51034" lon="3.63582">
        <ele>189.46</ele>
        <time>2022-10-03T13:13:50.130Z</time>
      </trkpt>
      <trkpt lat="49.51028" lon="3.63598">
        <ele>187.18</ele>
        <time>2022-10-03T13:13:59.430Z</time>
      </trkpt>
      <trkpt lat="49.51025" lon="3.6361">
        <ele>185.96</ele>
        <time>2022-10-03T13:14:08.550Z</time>
      </trkpt>
      <trkpt lat="49.51023" lon="3.63619">
        <ele>185.28</ele>
        <time>2022-10-03T13:14:17.570Z</time>
      </trkpt>
      <trkpt lat="49.51019" lon="3.63633">
        <ele>184.01</ele>
        <time>2022-10-03T13:14:26.900Z</time>
      </trkpt>
      <trkpt lat="49.51012" lon="3.63651">
        <ele>182.75</ele>
        <time>2022-10-03T13:14:35.999Z</time>
      </trkpt>
      <trkpt lat="49.5101" lon="3.63673">
        <ele>181.99</ele>
        <time>2022-10-03T13:14:45.711Z</time>
      </trkpt>
      <trkpt lat="49.51008" lon="3.63695">
        <ele>181.3</ele>
        <time>2022-10-03T13:14:55.853Z</time>
      </trkpt>
      <trkpt lat="49.51007" lon="3.63712">
        <ele>180.16</ele>
        <time>2022-10-03T13:15:04.999Z</time>
      </trkpt>
      <trkpt lat="49.51004" lon="3.63726">
        <ele>179.44</ele>
        <time>2022-10-03T13:15:14.370Z</time>
      </trkpt>
      <trkpt lat="49.51002" lon="3.63744">
        <ele>178.85</ele>
        <time>2022-10-03T13:15:23.795Z</time>
      </trkpt>
      <trkpt lat="49.51003" lon="3.63761">
        <ele>179.37</ele>
        <time>2022-10-03T13:15:33.210Z</time>
      </trkpt>
      <trkpt lat="49.51003" lon="3.63774">
        <ele>180.25</ele>
        <time>2022-10-03T13:15:42.430Z</time>
      </trkpt>
      <trkpt lat="49.51003" lon="3.63788">
        <ele>181.14</ele>
        <time>2022-10-03T13:15:51.489Z</time>
      </trkpt>
      <trkpt lat="49.51002" lon="3.63805">
        <ele>181.8</ele>
        <time>2022-10-03T13:16:00.999Z</time>
      </trkpt>
      <trkpt lat="49.51001" lon="3.6382">
        <ele>182.55</ele>
        <time>2022-10-03T13:16:10.631Z</time>
      </trkpt>
      <trkpt lat="49.50996" lon="3.63833">
        <ele>182.53</ele>
        <time>2022-10-03T13:16:20.151Z</time>
      </trkpt>
      <trkpt lat="49.50989" lon="3.63847">
        <ele>182.37</ele>
        <time>2022-10-03T13:16:29.590Z</time>
      </trkpt>
      <trkpt lat="49.50985" lon="3.63863">
        <ele>182.17</ele>
        <time>2022-10-03T13:16:39.029Z</time>
      </trkpt>
      <trkpt lat="49.5098" lon="3.63875">
        <ele>182.1</ele>
        <time>2022-10-03T13:16:48.999Z</time>
      </trkpt>
      <trkpt lat="49.50976" lon="3.63888">
        <ele>182.51</ele>
        <time>2022-10-03T13:16:58.421Z</time>
      </trkpt>
      <trkpt lat="49.50973" lon="3.63902">
        <ele>182.31</ele>
        <time>2022-10-03T13:17:07.631Z</time>
      </trkpt>
      <trkpt lat="49.50967" lon="3.63918">
        <ele>181.1</ele>
        <time>2022-10-03T13:17:17.450Z</time>
      </trkpt>
      <trkpt lat="49.5096" lon="3.63934">
        <ele>179.62</ele>
        <time>2022-10-03T13:17:26.629Z</time>
      </trkpt>
      <trkpt lat="49.50954" lon="3.63946">
        <ele>177.46</ele>
        <time>2022-10-03T13:17:35.999Z</time>
      </trkpt>
      <trkpt lat="49.50948" lon="3.63961">
        <ele>174.57</ele>
        <time>2022-10-03T13:17:45.999Z</time>
      </trkpt>
      <trkpt lat="49.50944" lon="3.63973">
        <ele>172.82</ele>
        <time>2022-10-03T13:17:55.330Z</time>
      </trkpt>
      <trkpt lat="49.50941" lon="3.63983">
        <ele>171.62</ele>
        <time>2022-10-03T13:18:04.349Z</time>
      </trkpt>
      <trkpt lat="49.50936" lon="3.63994">
        <ele>170.73</ele>
        <time>2022-10-03T13:18:13.670Z</time>
      </trkpt>
      <trkpt lat="49.50931" lon="3.64011">
        <ele>169.82</ele>
        <time>2022-10-03T13:18:22.999Z</time>
      </trkpt>
      <trkpt lat="49.50929" lon="3.64028">
        <ele>168.64</ele>
        <time>2022-10-03T13:18:32.370Z</time>
      </trkpt>
      <trkpt lat="49.50933" lon="3.6404">
        <ele>169.17</ele>
        <time>2022-10-03T13:18:41.421Z</time>
      </trkpt>
      <trkpt lat="49.50938" lon="3.64053">
        <ele>171.24</ele>
        <time>2022-10-03T13:18:50.690Z</time>
      </trkpt>
      <trkpt lat="49.5094" lon="3.64071">
        <ele>173.87</ele>
        <time>2022-10-03T13:18:59.795Z</time>
      </trkpt>
      <trkpt lat="49.50945" lon="3.64092">
        <ele>176.29</ele>
        <time>2022-10-03T13:19:09.830Z</time>
      </trkpt>
      <trkpt lat="49.50954" lon="3.64107">
        <ele>178.72</ele>
        <time>2022-10-03T13:19:19.350Z</time>
      </trkpt>
      <trkpt lat="49.50964" lon="3.64116">
        <ele>181.78</ele>
        <time>2022-10-03T13:19:28.999Z</time>
      </trkpt>
      <trkpt lat="49.5097" lon="3.6413">
        <ele>184.98</ele>
        <time>2022-10-03T13:19:38.589Z</time>
      </trkpt>
      <trkpt lat="49.50974" lon="3.64146">
        <ele>188.81</ele>
        <time>2022-10-03T13:19:47.999Z</time>
      </trkpt>
      <trkpt lat="49.5098" lon="3.64163">
        <ele>191.41</ele>
        <time>2022-10-03T13:19:57.999Z</time>
      </trkpt>
      <trkpt lat="49.50986" lon="3.64177">
        <ele>193.89</ele>
        <time>2022-10-03T13:20:07.629Z</time>
      </trkpt>
      <trkpt lat="49.50984" lon="3.64187">
        <ele>195.46</ele>
        <time>2022-10-03T13:20:16.999Z</time>
      </trkpt>
      <trkpt lat="49.50981" lon="3.64181">
        <ele>195.38</ele>
        <time>2022-10-03T13:20:26.999Z</time>
      </trkpt>
      <trkpt lat="49.50976" lon="3.64174">
        <ele>195.92</ele>
        <time>2022-10-03T13:20:36.691Z</time>
      </trkpt>
      <trkpt lat="49.50965" lon="3.64175">
        <ele>198.11</ele>
        <time>2022-10-03T13:20:45.751Z</time>
      </trkpt>
      <trkpt lat="49.50954" lon="3.64178">
        <ele>200.7</ele>
        <time>2022-10-03T13:20:54.970Z</time>
      </trkpt>
      <trkpt lat="49.50942" lon="3.64185">
        <ele>203.12</ele>
        <time>2022-10-03T13:21:04.690Z</time>
      </trkpt>
      <trkpt lat="49.50929" lon="3.64191">
        <ele>205.64</ele>
        <time>2022-10-03T13:21:13.832Z</time>
      </trkpt>
      <trkpt lat="49.50915" lon="3.64199">
        <ele>207.53</ele>
        <time>2022-10-03T13:21:23.230Z</time>
      </trkpt>
      <trkpt lat="49.50905" lon="3.64211">
        <ele>209.57</ele>
        <time>2022-10-03T13:21:32.550Z</time>
      </trkpt>
      <trkpt lat="49.50896" lon="3.64226">
        <ele>211.29</ele>
        <time>2022-10-03T13:21:42.630Z</time>
      </trkpt>
      <trkpt lat="49.50887" lon="3.64236">
        <ele>212.53</ele>
        <time>2022-10-03T13:21:52.570Z</time>
      </trkpt>
      <trkpt lat="49.50875" lon="3.6424">
        <ele>212.75</ele>
        <time>2022-10-03T13:22:01.651Z</time>
      </trkpt>
      <trkpt lat="49.50866" lon="3.64245">
        <ele>212.47</ele>
        <time>2022-10-03T13:22:10.999Z</time>
      </trkpt>
      <trkpt lat="49.50855" lon="3.64252">
        <ele>211.7</ele>
        <time>2022-10-03T13:22:20.190Z</time>
      </trkpt>
      <trkpt lat="49.50845" lon="3.64261">
        <ele>211.08</ele>
        <time>2022-10-03T13:22:29.450Z</time>
      </trkpt>
      <trkpt lat="49.50835" lon="3.64267">
        <ele>210.42</ele>
        <time>2022-10-03T13:22:38.809Z</time>
      </trkpt>
      <trkpt lat="49.50823" lon="3.64271">
        <ele>209.42</ele>
        <time>2022-10-03T13:22:48.689Z</time>
      </trkpt>
      <trkpt lat="49.50815" lon="3.64275">
        <ele>208.71</ele>
        <time>2022-10-03T13:22:57.999Z</time>
      </trkpt>
      <trkpt lat="49.50809" lon="3.64287">
        <ele>207.72</ele>
        <time>2022-10-03T13:23:07.072Z</time>
      </trkpt>
      <trkpt lat="49.508" lon="3.64296">
        <ele>205.48</ele>
        <time>2022-10-03T13:23:16.553Z</time>
      </trkpt>
      <trkpt lat="49.50791" lon="3.643">
        <ele>203.14</ele>
        <time>2022-10-03T13:23:25.999Z</time>
      </trkpt>
      <trkpt lat="49.50779" lon="3.64301">
        <ele>200.23</ele>
        <time>2022-10-03T13:23:35.813Z</time>
      </trkpt>
      <trkpt lat="49.50771" lon="3.64304">
        <ele>197.33</ele>
        <time>2022-10-03T13:23:44.999Z</time>
      </trkpt>
      <trkpt lat="49.50763" lon="3.64308">
        <ele>194.8</ele>
        <time>2022-10-03T13:23:54.292Z</time>
      </trkpt>
      <trkpt lat="49.50758" lon="3.64313">
        <ele>192.29</ele>
        <time>2022-10-03T13:24:04.086Z</time>
      </trkpt>
      <trkpt lat="49.50755" lon="3.64313">
        <ele>190.15</ele>
        <time>2022-10-03T13:24:13.999Z</time>
      </trkpt>
      <trkpt lat="49.50748" lon="3.64308">
        <ele>186.84</ele>
        <time>2022-10-03T13:24:23.999Z</time>
      </trkpt>
      <trkpt lat="49.50733" lon="3.64296">
        <ele>182.15</ele>
        <time>2022-10-03T13:24:33.062Z</time>
      </trkpt>
      <trkpt lat="49.50725" lon="3.64287">
        <ele>178.19</ele>
        <time>2022-10-03T13:24:42.425Z</time>
      </trkpt>
      <trkpt lat="49.50722" lon="3.64284">
        <ele>174.01</ele>
        <time>2022-10-03T13:24:51.665Z</time>
      </trkpt>
      <trkpt lat="49.50716" lon="3.64275">
        <ele>170.46</ele>
        <time>2022-10-03T13:25:00.965Z</time>
      </trkpt>
      <trkpt lat="49.50707" lon="3.64265">
        <ele>168.02</ele>
        <time>2022-10-03T13:25:09.999Z</time>
      </trkpt>
      <trkpt lat="49.50696" lon="3.64256">
        <ele>165.38</ele>
        <time>2022-10-03T13:25:19.999Z</time>
      </trkpt>
      <trkpt lat="49.50689" lon="3.64242">
        <ele>163.25</ele>
        <time>2022-10-03T13:25:29.007Z</time>
      </trkpt>
      <trkpt lat="49.50682" lon="3.6423">
        <ele>160.81</ele>
        <time>2022-10-03T13:25:38.999Z</time>
      </trkpt>
      <trkpt lat="49.50676" lon="3.64217">
        <ele>158.21</ele>
        <time>2022-10-03T13:25:48.465Z</time>
      </trkpt>
      <trkpt lat="49.50673" lon="3.64198">
        <ele>157.18</ele>
        <time>2022-10-03T13:25:57.865Z</time>
      </trkpt>
      <trkpt lat="49.50669" lon="3.64183">
        <ele>156.64</ele>
        <time>2022-10-03T13:26:07.205Z</time>
      </trkpt>
      <trkpt lat="49.50664" lon="3.6417">
        <ele>155.82</ele>
        <time>2022-10-03T13:26:16.999Z</time>
      </trkpt>
      <trkpt lat="49.50655" lon="3.64156">
        <ele>154.83</ele>
        <time>2022-10-03T13:26:26.785Z</time>
      </trkpt>
      <trkpt lat="49.50648" lon="3.64142">
        <ele>154.33</ele>
        <time>2022-10-03T13:26:35.788Z</time>
      </trkpt>
      <trkpt lat="49.50639" lon="3.64134">
        <ele>154.13</ele>
        <time>2022-10-03T13:26:44.905Z</time>
      </trkpt>
      <trkpt lat="49.50632" lon="3.64125">
        <ele>153.75</ele>
        <time>2022-10-03T13:26:53.925Z</time>
      </trkpt>
      <trkpt lat="49.50627" lon="3.64117">
        <ele>153.19</ele>
        <time>2022-10-03T13:27:03.986Z</time>
      </trkpt>
      <trkpt lat="49.50618" lon="3.64106">
        <ele>152.98</ele>
        <time>2022-10-03T13:27:13.068Z</time>
      </trkpt>
      <trkpt lat="49.50611" lon="3.64098">
        <ele>151.13</ele>
        <time>2022-10-03T13:27:22.999Z</time>
      </trkpt>
      <trkpt lat="49.50601" lon="3.64089">
        <ele>148.81</ele>
        <time>2022-10-03T13:27:32.999Z</time>
      </trkpt>
      <trkpt lat="49.50596" lon="3.64073">
        <ele>146.13</ele>
        <time>2022-10-03T13:27:42.999Z</time>
      </trkpt>
      <trkpt lat="49.50587" lon="3.64062">
        <ele>143.57</ele>
        <time>2022-10-03T13:27:52.766Z</time>
      </trkpt>
      <trkpt lat="49.50582" lon="3.64051">
        <ele>141.61</ele>
        <time>2022-10-03T13:28:03.000Z</time>
      </trkpt>
      <trkpt lat="49.50574" lon="3.64037">
        <ele>140.1</ele>
        <time>2022-10-03T13:28:13.000Z</time>
      </trkpt>
      <trkpt lat="49.50566" lon="3.64021">
        <ele>139.51</ele>
        <time>2022-10-03T13:28:22.905Z</time>
      </trkpt>
      <trkpt lat="49.50554" lon="3.64009">
        <ele>139.84</ele>
        <time>2022-10-03T13:28:33.008Z</time>
      </trkpt>
      <trkpt lat="49.50543" lon="3.64">
        <ele>140.95</ele>
        <time>2022-10-03T13:28:42.105Z</time>
      </trkpt>
      <trkpt lat="49.5053" lon="3.63992">
        <ele>143.06</ele>
        <time>2022-10-03T13:28:51.465Z</time>
      </trkpt>
      <trkpt lat="49.50517" lon="3.63985">
        <ele>145.06</ele>
        <time>2022-10-03T13:29:02.000Z</time>
      </trkpt>
      <trkpt lat="49.50506" lon="3.63977">
        <ele>147.22</ele>
        <time>2022-10-03T13:29:11.026Z</time>
      </trkpt>
      <trkpt lat="49.50499" lon="3.63971">
        <ele>149.59</ele>
        <time>2022-10-03T13:29:20.825Z</time>
      </trkpt>
      <trkpt lat="49.50492" lon="3.63973">
        <ele>151.08</ele>
        <time>2022-10-03T13:29:30.346Z</time>
      </trkpt>
      <trkpt lat="49.50487" lon="3.63972">
        <ele>152.16</ele>
        <time>2022-10-03T13:29:41.000Z</time>
      </trkpt>
      <trkpt lat="49.50487" lon="3.63963">
        <ele>153.38</ele>
        <time>2022-10-03T13:29:50.545Z</time>
      </trkpt>
      <trkpt lat="49.50485" lon="3.63958">
        <ele>154.35</ele>
        <time>2022-10-03T13:30:01.000Z</time>
      </trkpt>
      <trkpt lat="49.5048" lon="3.6395">
        <ele>154.75</ele>
        <time>2022-10-03T13:30:10.086Z</time>
      </trkpt>
      <trkpt lat="49.50469" lon="3.63932">
        <ele>154.77</ele>
        <time>2022-10-03T13:30:19.425Z</time>
      </trkpt>
      <trkpt lat="49.50459" lon="3.63924">
        <ele>155.04</ele>
        <time>2022-10-03T13:30:29.000Z</time>
      </trkpt>
      <trkpt lat="49.5045" lon="3.63915">
        <ele>155.14</ele>
        <time>2022-10-03T13:30:39.000Z</time>
      </trkpt>
      <trkpt lat="49.50443" lon="3.63903">
        <ele>155.36</ele>
        <time>2022-10-03T13:30:48.886Z</time>
      </trkpt>
      <trkpt lat="49.50442" lon="3.63888">
        <ele>156.21</ele>
        <time>2022-10-03T13:30:58.026Z</time>
      </trkpt>
      <trkpt lat="49.50438" lon="3.63873">
        <ele>156.73</ele>
        <time>2022-10-03T13:31:08.000Z</time>
      </trkpt>
      <trkpt lat="49.50436" lon="3.63858">
        <ele>157.35</ele>
        <time>2022-10-03T13:31:17.526Z</time>
      </trkpt>
      <trkpt lat="49.50436" lon="3.63835">
        <ele>156.7</ele>
        <time>2022-10-03T13:31:27.000Z</time>
      </trkpt>
      <trkpt lat="49.50435" lon="3.63817">
        <ele>156.09</ele>
        <time>2022-10-03T13:31:37.000Z</time>
      </trkpt>
      <trkpt lat="49.50435" lon="3.63797">
        <ele>154.72</ele>
        <time>2022-10-03T13:31:46.488Z</time>
      </trkpt>
      <trkpt lat="49.50433" lon="3.63782">
        <ele>154.12</ele>
        <time>2022-10-03T13:31:55.966Z</time>
      </trkpt>
      <trkpt lat="49.50432" lon="3.63768">
        <ele>154.64</ele>
        <time>2022-10-03T13:32:06.000Z</time>
      </trkpt>
      <trkpt lat="49.50434" lon="3.63755">
        <ele>157.49</ele>
        <time>2022-10-03T13:32:16.000Z</time>
      </trkpt>
      <trkpt lat="49.50433" lon="3.6375">
        <ele>161.24</ele>
        <time>2022-10-03T13:32:25.073Z</time>
      </trkpt>
      <trkpt lat="49.50427" lon="3.63738">
        <ele>165.34</ele>
        <time>2022-10-03T13:32:34.789Z</time>
      </trkpt>
      <trkpt lat="49.50419" lon="3.63719">
        <ele>170.45</ele>
        <time>2022-10-03T13:32:45.000Z</time>
      </trkpt>
      <trkpt lat="49.50411" lon="3.63702">
        <ele>175.43</ele>
        <time>2022-10-03T13:32:55.000Z</time>
      </trkpt>
      <trkpt lat="49.50404" lon="3.63676">
        <ele>178.56</ele>
        <time>2022-10-03T13:33:04.609Z</time>
      </trkpt>
      <trkpt lat="49.50405" lon="3.63662">
        <ele>180.68</ele>
        <time>2022-10-03T13:33:13.730Z</time>
      </trkpt>
      <trkpt lat="49.5041" lon="3.63651">
        <ele>181.77</ele>
        <time>2022-10-03T13:33:23.000Z</time>
      </trkpt>
      <trkpt lat="49.50409" lon="3.63633">
        <ele>182.78</ele>
        <time>2022-10-03T13:33:33.009Z</time>
      </trkpt>
      <trkpt lat="49.50405" lon="3.63615">
        <ele>183.72</ele>
        <time>2022-10-03T13:33:42.529Z</time>
      </trkpt>
      <trkpt lat="49.504" lon="3.63594">
        <ele>183.14</ele>
        <time>2022-10-03T13:33:52.029Z</time>
      </trkpt>
      <trkpt lat="49.50398" lon="3.63576">
        <ele>181.77</ele>
        <time>2022-10-03T13:34:01.110Z</time>
      </trkpt>
      <trkpt lat="49.50398" lon="3.6356">
        <ele>180.99</ele>
        <time>2022-10-03T13:34:11.000Z</time>
      </trkpt>
      <trkpt lat="49.50399" lon="3.63543">
        <ele>179.84</ele>
        <time>2022-10-03T13:34:21.000Z</time>
      </trkpt>
      <trkpt lat="49.50397" lon="3.63525">
        <ele>178.24</ele>
        <time>2022-10-03T13:34:31.000Z</time>
      </trkpt>
      <trkpt lat="49.50392" lon="3.63506">
        <ele>176.62</ele>
        <time>2022-10-03T13:34:40.074Z</time>
      </trkpt>
      <trkpt lat="49.50389" lon="3.63489">
        <ele>174.64</ele>
        <time>2022-10-03T13:34:49.269Z</time>
      </trkpt>
      <trkpt lat="49.50388" lon="3.6347">
        <ele>172.63</ele>
        <time>2022-10-03T13:34:58.870Z</time>
      </trkpt>
      <trkpt lat="49.50384" lon="3.63457">
        <ele>170.73</ele>
        <time>2022-10-03T13:35:07.970Z</time>
      </trkpt>
      <trkpt lat="49.50383" lon="3.63441">
        <ele>167.88</ele>
        <time>2022-10-03T13:35:18.000Z</time>
      </trkpt>
      <trkpt lat="49.50379" lon="3.63422">
        <ele>165.86</ele>
        <time>2022-10-03T13:35:28.000Z</time>
      </trkpt>
      <trkpt lat="49.50378" lon="3.63406">
        <ele>164.61</ele>
        <time>2022-10-03T13:35:37.270Z</time>
      </trkpt>
      <trkpt lat="49.50377" lon="3.63392">
        <ele>164.06</ele>
        <time>2022-10-03T13:35:47.010Z</time>
      </trkpt>
      <trkpt lat="49.50377" lon="3.6338">
        <ele>163.96</ele>
        <time>2022-10-03T13:35:57.000Z</time>
      </trkpt>
      <trkpt lat="49.50378" lon="3.6337">
        <ele>164.61</ele>
        <time>2022-10-03T13:36:06.429Z</time>
      </trkpt>
      <trkpt lat="49.50377" lon="3.63356">
        <ele>166.94</ele>
        <time>2022-10-03T13:36:15.729Z</time>
      </trkpt>
      <trkpt lat="49.50376" lon="3.63337">
        <ele>170.46</ele>
        <time>2022-10-03T13:36:26.000Z</time>
      </trkpt>
      <trkpt lat="49.50373" lon="3.63316">
        <ele>174.42</ele>
        <time>2022-10-03T13:36:35.289Z</time>
      </trkpt>
      <trkpt lat="49.50369" lon="3.63295">
        <ele>176.7</ele>
        <time>2022-10-03T13:36:44.790Z</time>
      </trkpt>
      <trkpt lat="49.50366" lon="3.63279">
        <ele>178.49</ele>
        <time>2022-10-03T13:36:54.101Z</time>
      </trkpt>
      <trkpt lat="49.50363" lon="3.63267">
        <ele>180.35</ele>
        <time>2022-10-03T13:37:04.000Z</time>
      </trkpt>
      <trkpt lat="49.50361" lon="3.63251">
        <ele>181.83</ele>
        <time>2022-10-03T13:37:13.682Z</time>
      </trkpt>
      <trkpt lat="49.50357" lon="3.63233">
        <ele>182.38</ele>
        <time>2022-10-03T13:37:24.000Z</time>
      </trkpt>
      <trkpt lat="49.50358" lon="3.63211">
        <ele>181.89</ele>
        <time>2022-10-03T13:37:34.000Z</time>
      </trkpt>
      <trkpt lat="49.50358" lon="3.63195">
        <ele>179.22</ele>
        <time>2022-10-03T13:37:44.122Z</time>
      </trkpt>
      <trkpt lat="49.50359" lon="3.63183">
        <ele>176.72</ele>
        <time>2022-10-03T13:37:53.322Z</time>
      </trkpt>
      <trkpt lat="49.50357" lon="3.63167">
        <ele>175.42</ele>
        <time>2022-10-03T13:38:02.383Z</time>
      </trkpt>
      <trkpt lat="49.50355" lon="3.63152">
        <ele>175.02</ele>
        <time>2022-10-03T13:38:11.422Z</time>
      </trkpt>
      <trkpt lat="49.50355" lon="3.63139">
        <ele>175.29</ele>
        <time>2022-10-03T13:38:21.000Z</time>
      </trkpt>
      <trkpt lat="49.50354" lon="3.6312">
        <ele>175.83</ele>
        <time>2022-10-03T13:38:32.000Z</time>
      </trkpt>
      <trkpt lat="49.5035" lon="3.63113">
        <ele>176.86</ele>
        <time>2022-10-03T13:38:41.422Z</time>
      </trkpt>
      <trkpt lat="49.50351" lon="3.631">
        <ele>178.02</ele>
        <time>2022-10-03T13:38:50.561Z</time>
      </trkpt>
      <trkpt lat="49.50346" lon="3.63081">
        <ele>179.04</ele>
        <time>2022-10-03T13:38:59.802Z</time>
      </trkpt>
      <trkpt lat="49.50346" lon="3.63065">
        <ele>179.06</ele>
        <time>2022-10-03T13:39:10.000Z</time>
      </trkpt>
      <trkpt lat="49.5034" lon="3.63045">
        <ele>178.49</ele>
        <time>2022-10-03T13:39:19.962Z</time>
      </trkpt>
      <trkpt lat="49.50335" lon="3.63029">
        <ele>177.67</ele>
        <time>2022-10-03T13:39:29.000Z</time>
      </trkpt>
      <trkpt lat="49.50332" lon="3.63013">
        <ele>176.62</ele>
        <time>2022-10-03T13:39:38.125Z</time>
      </trkpt>
      <trkpt lat="49.50327" lon="3.62992">
        <ele>174.49</ele>
        <time>2022-10-03T13:39:47.703Z</time>
      </trkpt>
      <trkpt lat="49.50328" lon="3.62982">
        <ele>172.09</ele>
        <time>2022-10-03T13:39:57.124Z</time>
      </trkpt>
      <trkpt lat="49.50324" lon="3.62966">
        <ele>169.44</ele>
        <time>2022-10-03T13:40:07.000Z</time>
      </trkpt>
      <trkpt lat="49.50316" lon="3.6295">
        <ele>168.1</ele>
        <time>2022-10-03T13:40:17.000Z</time>
      </trkpt>
      <trkpt lat="49.50311" lon="3.62941">
        <ele>166.64</ele>
        <time>2022-10-03T13:40:26.843Z</time>
      </trkpt>
      <trkpt lat="49.50307" lon="3.62928">
        <ele>164.48</ele>
        <time>2022-10-03T13:40:37.000Z</time>
      </trkpt>
      <trkpt lat="49.50306" lon="3.62912">
        <ele>162.4</ele>
        <time>2022-10-03T13:40:46.104Z</time>
      </trkpt>
      <trkpt lat="49.50307" lon="3.62894">
        <ele>160.7</ele>
        <time>2022-10-03T13:40:56.000Z</time>
      </trkpt>
      <trkpt lat="49.50307" lon="3.62867">
        <ele>158.88</ele>
        <time>2022-10-03T13:41:05.002Z</time>
      </trkpt>
      <trkpt lat="49.50304" lon="3.62857">
        <ele>156.83</ele>
        <time>2022-10-03T13:41:15.000Z</time>
      </trkpt>
      <trkpt lat="49.50297" lon="3.6284">
        <ele>156.21</ele>
        <time>2022-10-03T13:41:24.822Z</time>
      </trkpt>
      <trkpt lat="49.50294" lon="3.62816">
        <ele>154.5</ele>
        <time>2022-10-03T13:41:34.107Z</time>
      </trkpt>
      <trkpt lat="49.50289" lon="3.62798">
        <ele>153.28</ele>
        <time>2022-10-03T13:41:43.943Z</time>
      </trkpt>
      <trkpt lat="49.50291" lon="3.6279">
        <ele>152.95</ele>
        <time>2022-10-03T13:41:54.000Z</time>
      </trkpt>
      <trkpt lat="49.50289" lon="3.62793">
        <ele>152.76</ele>
        <time>2022-10-03T13:42:04.000Z</time>
      </trkpt>
      <trkpt lat="49.50289" lon="3.62795">
        <ele>152.54</ele>
        <time>2022-10-03T13:42:13.883Z</time>
      </trkpt>
      <trkpt lat="49.50288" lon="3.62798">
        <ele>152.36</ele>
        <time>2022-10-03T13:42:23.702Z</time>
      </trkpt>
      <trkpt lat="49.50286" lon="3.62794">
        <ele>153.1</ele>
        <time>2022-10-03T13:42:33.000Z</time>
      </trkpt>
      <trkpt lat="49.50285" lon="3.62792">
        <ele>154.35</ele>
        <time>2022-10-03T13:42:43.000Z</time>
      </trkpt>
      <trkpt lat="49.50286" lon="3.62792">
        <ele>158.51</ele>
        <time>2022-10-03T13:43:44.000Z</time>
      </trkpt>
      <trkpt lat="49.50287" lon="3.62794">
        <ele>159.28</ele>
        <time>2022-10-03T13:43:53.933Z</time>
      </trkpt>
      <trkpt lat="49.50287" lon="3.6279">
        <ele>159.54</ele>
        <time>2022-10-03T13:44:03.000Z</time>
      </trkpt>
      <trkpt lat="49.50288" lon="3.62788">
        <ele>160.33</ele>
        <time>2022-10-03T13:44:12.822Z</time>
      </trkpt>
      <trkpt lat="49.50281" lon="3.62778">
        <ele>161.75</ele>
        <time>2022-10-03T13:44:23.000Z</time>
      </trkpt>
      <trkpt lat="49.50273" lon="3.6277">
        <ele>162.52</ele>
        <time>2022-10-03T13:44:32.621Z</time>
      </trkpt>
      <trkpt lat="49.50265" lon="3.62765">
        <ele>163.2</ele>
        <time>2022-10-03T13:44:42.000Z</time>
      </trkpt>
      <trkpt lat="49.50255" lon="3.62759">
        <ele>163.8</ele>
        <time>2022-10-03T13:44:52.023Z</time>
      </trkpt>
      <trkpt lat="49.50246" lon="3.62752">
        <ele>164.15</ele>
        <time>2022-10-03T13:45:02.094Z</time>
      </trkpt>
      <trkpt lat="49.50233" lon="3.62741">
        <ele>164.82</ele>
        <time>2022-10-03T13:45:11.107Z</time>
      </trkpt>
      <trkpt lat="49.50222" lon="3.62738">
        <ele>166.56</ele>
        <time>2022-10-03T13:45:20.126Z</time>
      </trkpt>
      <trkpt lat="49.50212" lon="3.62737">
        <ele>168.5</ele>
        <time>2022-10-03T13:45:29.822Z</time>
      </trkpt>
      <trkpt lat="49.50203" lon="3.62736">
        <ele>170.18</ele>
        <time>2022-10-03T13:45:39.125Z</time>
      </trkpt>
      <trkpt lat="49.50195" lon="3.62738">
        <ele>171.58</ele>
        <time>2022-10-03T13:45:48.802Z</time>
      </trkpt>
      <trkpt lat="49.50187" lon="3.62736">
        <ele>172.56</ele>
        <time>2022-10-03T13:45:58.000Z</time>
      </trkpt>
      <trkpt lat="49.50176" lon="3.62733">
        <ele>173.04</ele>
        <time>2022-10-03T13:46:07.205Z</time>
      </trkpt>
      <trkpt lat="49.50167" lon="3.62731">
        <ele>173.41</ele>
        <time>2022-10-03T13:46:17.106Z</time>
      </trkpt>
      <trkpt lat="49.50157" lon="3.62729">
        <ele>173.76</ele>
        <time>2022-10-03T13:46:26.963Z</time>
      </trkpt>
      <trkpt lat="49.50148" lon="3.62727">
        <ele>174.24</ele>
        <time>2022-10-03T13:46:36.102Z</time>
      </trkpt>
      <trkpt lat="49.50136" lon="3.62724">
        <ele>174.62</ele>
        <time>2022-10-03T13:46:46.000Z</time>
      </trkpt>
      <trkpt lat="49.50124" lon="3.6272">
        <ele>174.34</ele>
        <time>2022-10-03T13:46:56.023Z</time>
      </trkpt>
      <trkpt lat="49.50114" lon="3.62716">
        <ele>173.62</ele>
        <time>2022-10-03T13:47:05.522Z</time>
      </trkpt>
      <trkpt lat="49.50107" lon="3.62716">
        <ele>172.52</ele>
        <time>2022-10-03T13:47:15.000Z</time>
      </trkpt>
      <trkpt lat="49.50105" lon="3.62715">
        <ele>171.52</ele>
        <time>2022-10-03T13:47:25.000Z</time>
      </trkpt>
      <trkpt lat="49.50099" lon="3.62715">
        <ele>171.25</ele>
        <time>2022-10-03T13:47:35.000Z</time>
      </trkpt>
      <trkpt lat="49.50093" lon="3.62711">
        <ele>171.7</ele>
        <time>2022-10-03T13:47:44.422Z</time>
      </trkpt>
      <trkpt lat="49.50089" lon="3.62702">
        <ele>172.62</ele>
        <time>2022-10-03T13:47:55.000Z</time>
      </trkpt>
      <trkpt lat="49.50086" lon="3.62691">
        <ele>173.78</ele>
        <time>2022-10-03T13:48:04.483Z</time>
      </trkpt>
      <trkpt lat="49.50083" lon="3.62681">
        <ele>174.4</ele>
        <time>2022-10-03T13:48:14.000Z</time>
      </trkpt>
      <trkpt lat="49.50079" lon="3.6267">
        <ele>174.77</ele>
        <time>2022-10-03T13:48:24.000Z</time>
      </trkpt>
      <trkpt lat="49.50077" lon="3.62656">
        <ele>174.74</ele>
        <time>2022-10-03T13:48:33.043Z</time>
      </trkpt>
      <trkpt lat="49.50076" lon="3.62643">
        <ele>174.59</ele>
        <time>2022-10-03T13:48:42.723Z</time>
      </trkpt>
      <trkpt lat="49.50069" lon="3.62631">
        <ele>175</ele>
        <time>2022-10-03T13:48:52.622Z</time>
      </trkpt>
      <trkpt lat="49.50063" lon="3.62618">
        <ele>175.52</ele>
        <time>2022-10-03T13:49:01.624Z</time>
      </trkpt>
      <trkpt lat="49.50059" lon="3.62604">
        <ele>175.89</ele>
        <time>2022-10-03T13:49:10.682Z</time>
      </trkpt>
      <trkpt lat="49.50057" lon="3.62593">
        <ele>175.83</ele>
        <time>2022-10-03T13:49:20.000Z</time>
      </trkpt>
      <trkpt lat="49.50054" lon="3.62582">
        <ele>175.63</ele>
        <time>2022-10-03T13:49:29.583Z</time>
      </trkpt>
      <trkpt lat="49.50054" lon="3.62573">
        <ele>175.31</ele>
        <time>2022-10-03T13:49:39.000Z</time>
      </trkpt>
      <trkpt lat="49.50053" lon="3.62569">
        <ele>174.87</ele>
        <time>2022-10-03T13:49:49.000Z</time>
      </trkpt>
      <trkpt lat="49.50052" lon="3.62569">
        <ele>174.57</ele>
        <time>2022-10-03T13:49:58.602Z</time>
      </trkpt>
      <trkpt lat="49.50052" lon="3.62564">
        <ele>174.22</ele>
        <time>2022-10-03T13:50:07.963Z</time>
      </trkpt>
      <trkpt lat="49.50053" lon="3.62551">
        <ele>173.85</ele>
        <time>2022-10-03T13:50:17.097Z</time>
      </trkpt>
      <trkpt lat="49.5005" lon="3.62537">
        <ele>173.97</ele>
        <time>2022-10-03T13:50:27.000Z</time>
      </trkpt>
      <trkpt lat="49.5005" lon="3.62521">
        <ele>173.96</ele>
        <time>2022-10-03T13:50:36.462Z</time>
      </trkpt>
      <trkpt lat="49.50047" lon="3.62507">
        <ele>173.38</ele>
        <time>2022-10-03T13:50:46.000Z</time>
      </trkpt>
      <trkpt lat="49.50047" lon="3.62488">
        <ele>173.07</ele>
        <time>2022-10-03T13:50:55.403Z</time>
      </trkpt>
      <trkpt lat="49.50045" lon="3.62474">
        <ele>173.06</ele>
        <time>2022-10-03T13:51:04.763Z</time>
      </trkpt>
      <trkpt lat="49.50044" lon="3.62453">
        <ele>173.01</ele>
        <time>2022-10-03T13:51:14.000Z</time>
      </trkpt>
      <trkpt lat="49.50043" lon="3.62432">
        <ele>172.93</ele>
        <time>2022-10-03T13:51:23.804Z</time>
      </trkpt>
      <trkpt lat="49.5004" lon="3.62417">
        <ele>173.04</ele>
        <time>2022-10-03T13:51:33.111Z</time>
      </trkpt>
      <trkpt lat="49.50034" lon="3.62404">
        <ele>173.75</ele>
        <time>2022-10-03T13:51:42.936Z</time>
      </trkpt>
      <trkpt lat="49.5003" lon="3.62393">
        <ele>174.61</ele>
        <time>2022-10-03T13:51:52.000Z</time>
      </trkpt>
      <trkpt lat="49.50026" lon="3.62379">
        <ele>175.05</ele>
        <time>2022-10-03T13:52:01.362Z</time>
      </trkpt>
      <trkpt lat="49.50024" lon="3.62363">
        <ele>175.09</ele>
        <time>2022-10-03T13:52:10.904Z</time>
      </trkpt>
      <trkpt lat="49.50021" lon="3.62349">
        <ele>175.15</ele>
        <time>2022-10-03T13:52:20.000Z</time>
      </trkpt>
      <trkpt lat="49.50016" lon="3.62332">
        <ele>175.14</ele>
        <time>2022-10-03T13:52:29.984Z</time>
      </trkpt>
      <trkpt lat="49.50013" lon="3.62317">
        <ele>175.05</ele>
        <time>2022-10-03T13:52:39.442Z</time>
      </trkpt>
      <trkpt lat="49.50012" lon="3.62301">
        <ele>174.78</ele>
        <time>2022-10-03T13:52:49.503Z</time>
      </trkpt>
      <trkpt lat="49.5001" lon="3.62287">
        <ele>174.35</ele>
        <time>2022-10-03T13:52:58.902Z</time>
      </trkpt>
      <trkpt lat="49.50008" lon="3.62275">
        <ele>174.12</ele>
        <time>2022-10-03T13:53:08.000Z</time>
      </trkpt>
      <trkpt lat="49.50004" lon="3.62255">
        <ele>173.88</ele>
        <time>2022-10-03T13:53:18.142Z</time>
      </trkpt>
      <trkpt lat="49.50001" lon="3.62237">
        <ele>173.87</ele>
        <time>2022-10-03T13:53:27.382Z</time>
      </trkpt>
      <trkpt lat="49.49996" lon="3.62222">
        <ele>173.67</ele>
        <time>2022-10-03T13:53:36.623Z</time>
      </trkpt>
      <trkpt lat="49.49993" lon="3.62216">
        <ele>173.61</ele>
        <time>2022-10-03T13:53:46.000Z</time>
      </trkpt>
      <trkpt lat="49.49992" lon="3.62205">
        <ele>173.4</ele>
        <time>2022-10-03T13:53:55.024Z</time>
      </trkpt>
      <trkpt lat="49.49991" lon="3.62193">
        <ele>173.19</ele>
        <time>2022-10-03T13:54:05.000Z</time>
      </trkpt>
      <trkpt lat="49.49986" lon="3.62177">
        <ele>172.94</ele>
        <time>2022-10-03T13:54:14.263Z</time>
      </trkpt>
      <trkpt lat="49.49985" lon="3.62167">
        <ele>172.56</ele>
        <time>2022-10-03T13:54:23.723Z</time>
      </trkpt>
      <trkpt lat="49.49987" lon="3.6216">
        <ele>172</ele>
        <time>2022-10-03T13:54:33.643Z</time>
      </trkpt>
      <trkpt lat="49.49981" lon="3.6214">
        <ele>171.38</ele>
        <time>2022-10-03T13:54:43.000Z</time>
      </trkpt>
      <trkpt lat="49.49978" lon="3.62127">
        <ele>170.49</ele>
        <time>2022-10-03T13:54:52.902Z</time>
      </trkpt>
      <trkpt lat="49.49975" lon="3.62116">
        <ele>169.63</ele>
        <time>2022-10-03T13:55:02.000Z</time>
      </trkpt>
      <trkpt lat="49.49971" lon="3.62101">
        <ele>168.39</ele>
        <time>2022-10-03T13:55:11.902Z</time>
      </trkpt>
      <trkpt lat="49.49966" lon="3.62089">
        <ele>167.67</ele>
        <time>2022-10-03T13:55:21.066Z</time>
      </trkpt>
      <trkpt lat="49.49963" lon="3.62077">
        <ele>167.18</ele>
        <time>2022-10-03T13:55:30.442Z</time>
      </trkpt>
      <trkpt lat="49.49959" lon="3.62056">
        <ele>167.15</ele>
        <time>2022-10-03T13:55:41.000Z</time>
      </trkpt>
      <trkpt lat="49.49957" lon="3.62038">
        <ele>167.28</ele>
        <time>2022-10-03T13:55:50.063Z</time>
      </trkpt>
      <trkpt lat="49.49955" lon="3.6202">
        <ele>167.51</ele>
        <time>2022-10-03T13:56:00.000Z</time>
      </trkpt>
      <trkpt lat="49.4995" lon="3.62002">
        <ele>167.31</ele>
        <time>2022-10-03T13:56:09.042Z</time>
      </trkpt>
      <trkpt lat="49.49946" lon="3.61991">
        <ele>167.07</ele>
        <time>2022-10-03T13:56:18.683Z</time>
      </trkpt>
      <trkpt lat="49.49941" lon="3.61977">
        <ele>167.5</ele>
        <time>2022-10-03T13:56:27.723Z</time>
      </trkpt>
      <trkpt lat="49.49933" lon="3.61962">
        <ele>168.06</ele>
        <time>2022-10-03T13:56:37.100Z</time>
      </trkpt>
      <trkpt lat="49.49923" lon="3.61949">
        <ele>168.52</ele>
        <time>2022-10-03T13:56:46.382Z</time>
      </trkpt>
      <trkpt lat="49.49916" lon="3.61939">
        <ele>168.95</ele>
        <time>2022-10-03T13:56:55.442Z</time>
      </trkpt>
      <trkpt lat="49.49908" lon="3.61928">
        <ele>169.46</ele>
        <time>2022-10-03T13:57:05.106Z</time>
      </trkpt>
      <trkpt lat="49.49903" lon="3.61925">
        <ele>169.57</ele>
        <time>2022-10-03T13:57:14.423Z</time>
      </trkpt>
      <trkpt lat="49.49895" lon="3.61918">
        <ele>169.57</ele>
        <time>2022-10-03T13:57:24.000Z</time>
      </trkpt>
      <trkpt lat="49.49884" lon="3.61912">
        <ele>169.97</ele>
        <time>2022-10-03T13:57:34.000Z</time>
      </trkpt>
      <trkpt lat="49.49874" lon="3.61902">
        <ele>170.51</ele>
        <time>2022-10-03T13:57:43.003Z</time>
      </trkpt>
      <trkpt lat="49.4987" lon="3.61887">
        <ele>171.06</ele>
        <time>2022-10-03T13:57:52.802Z</time>
      </trkpt>
      <trkpt lat="49.49872" lon="3.61871">
        <ele>171.33</ele>
        <time>2022-10-03T13:58:02.145Z</time>
      </trkpt>
      <trkpt lat="49.49876" lon="3.61858">
        <ele>171.39</ele>
        <time>2022-10-03T13:58:12.000Z</time>
      </trkpt>
      <trkpt lat="49.49878" lon="3.61839">
        <ele>171.29</ele>
        <time>2022-10-03T13:58:22.000Z</time>
      </trkpt>
      <trkpt lat="49.49879" lon="3.61821">
        <ele>171.1</ele>
        <time>2022-10-03T13:58:32.000Z</time>
      </trkpt>
      <trkpt lat="49.49878" lon="3.61803">
        <ele>171.06</ele>
        <time>2022-10-03T13:58:41.363Z</time>
      </trkpt>
      <trkpt lat="49.49874" lon="3.61788">
        <ele>170.7</ele>
        <time>2022-10-03T13:58:50.903Z</time>
      </trkpt>
      <trkpt lat="49.49871" lon="3.61776">
        <ele>170.23</ele>
        <time>2022-10-03T13:59:00.000Z</time>
      </trkpt>
      <trkpt lat="49.49865" lon="3.61763">
        <ele>169.8</ele>
        <time>2022-10-03T13:59:09.064Z</time>
      </trkpt>
      <trkpt lat="49.49857" lon="3.6175">
        <ele>169.38</ele>
        <time>2022-10-03T13:59:20.000Z</time>
      </trkpt>
      <trkpt lat="49.49851" lon="3.61738">
        <ele>169.79</ele>
        <time>2022-10-03T13:59:29.904Z</time>
      </trkpt>
      <trkpt lat="49.49846" lon="3.61729">
        <ele>170.43</ele>
        <time>2022-10-03T13:59:38.963Z</time>
      </trkpt>
      <trkpt lat="49.49843" lon="3.61716">
        <ele>170.76</ele>
        <time>2022-10-03T13:59:48.102Z</time>
      </trkpt>
      <trkpt lat="49.49838" lon="3.61703">
        <ele>171.42</ele>
        <time>2022-10-03T13:59:58.000Z</time>
      </trkpt>
      <trkpt lat="49.49833" lon="3.61688">
        <ele>172.23</ele>
        <time>2022-10-03T14:00:07.004Z</time>
      </trkpt>
      <trkpt lat="49.49827" lon="3.61674">
        <ele>172.93</ele>
        <time>2022-10-03T14:00:16.782Z</time>
      </trkpt>
      <trkpt lat="49.49821" lon="3.61661">
        <ele>173.51</ele>
        <time>2022-10-03T14:00:25.883Z</time>
      </trkpt>
      <trkpt lat="49.49815" lon="3.61647">
        <ele>173.74</ele>
        <time>2022-10-03T14:00:34.983Z</time>
      </trkpt>
      <trkpt lat="49.4981" lon="3.61634">
        <ele>173.66</ele>
        <time>2022-10-03T14:00:45.000Z</time>
      </trkpt>
      <trkpt lat="49.49805" lon="3.61618">
        <ele>173.5</ele>
        <time>2022-10-03T14:00:55.000Z</time>
      </trkpt>
      <trkpt lat="49.49801" lon="3.61606">
        <ele>173.26</ele>
        <time>2022-10-03T14:01:05.000Z</time>
      </trkpt>
      <trkpt lat="49.49797" lon="3.61593">
        <ele>173.26</ele>
        <time>2022-10-03T14:01:14.363Z</time>
      </trkpt>
      <trkpt lat="49.49794" lon="3.6158">
        <ele>172.84</ele>
        <time>2022-10-03T14:01:23.842Z</time>
      </trkpt>
      <trkpt lat="49.49789" lon="3.61569">
        <ele>172.25</ele>
        <time>2022-10-03T14:01:33.000Z</time>
      </trkpt>
      <trkpt lat="49.49783" lon="3.61555">
        <ele>171.69</ele>
        <time>2022-10-03T14:01:42.113Z</time>
      </trkpt>
      <trkpt lat="49.49777" lon="3.61543">
        <ele>171.3</ele>
        <time>2022-10-03T14:01:51.522Z</time>
      </trkpt>
      <trkpt lat="49.49773" lon="3.61527">
        <ele>171.15</ele>
        <time>2022-10-03T14:02:01.099Z</time>
      </trkpt>
      <trkpt lat="49.49769" lon="3.61511">
        <ele>171.77</ele>
        <time>2022-10-03T14:02:10.442Z</time>
      </trkpt>
      <trkpt lat="49.49766" lon="3.61496">
        <ele>172.49</ele>
        <time>2022-10-03T14:02:19.443Z</time>
      </trkpt>
      <trkpt lat="49.4976" lon="3.61479">
        <ele>172.64</ele>
        <time>2022-10-03T14:02:28.964Z</time>
      </trkpt>
      <trkpt lat="49.49754" lon="3.61466">
        <ele>172.95</ele>
        <time>2022-10-03T14:02:38.243Z</time>
      </trkpt>
      <trkpt lat="49.49747" lon="3.61454">
        <ele>173.17</ele>
        <time>2022-10-03T14:02:47.683Z</time>
      </trkpt>
      <trkpt lat="49.49741" lon="3.61444">
        <ele>173.36</ele>
        <time>2022-10-03T14:02:56.963Z</time>
      </trkpt>
      <trkpt lat="49.49739" lon="3.61428">
        <ele>173.59</ele>
        <time>2022-10-03T14:03:07.000Z</time>
      </trkpt>
      <trkpt lat="49.49737" lon="3.6141">
        <ele>173.85</ele>
        <time>2022-10-03T14:03:16.003Z</time>
      </trkpt>
      <trkpt lat="49.49736" lon="3.61398">
        <ele>173.95</ele>
        <time>2022-10-03T14:03:25.882Z</time>
      </trkpt>
      <trkpt lat="49.49734" lon="3.61397">
        <ele>174.09</ele>
        <time>2022-10-03T14:03:36.000Z</time>
      </trkpt>
      <trkpt lat="49.49735" lon="3.61389">
        <ele>174.43</ele>
        <time>2022-10-03T14:03:45.782Z</time>
      </trkpt>
      <trkpt lat="49.49734" lon="3.6137">
        <ele>175.11</ele>
        <time>2022-10-03T14:03:54.863Z</time>
      </trkpt>
      <trkpt lat="49.4973" lon="3.61355">
        <ele>175.34</ele>
        <time>2022-10-03T14:04:03.932Z</time>
      </trkpt>
      <trkpt lat="49.49728" lon="3.61346">
        <ele>175.41</ele>
        <time>2022-10-03T14:04:14.000Z</time>
      </trkpt>
      <trkpt lat="49.49726" lon="3.61341">
        <ele>175.03</ele>
        <time>2022-10-03T14:04:23.283Z</time>
      </trkpt>
      <trkpt lat="49.49725" lon="3.6133">
        <ele>174.59</ele>
        <time>2022-10-03T14:04:33.000Z</time>
      </trkpt>
      <trkpt lat="49.49724" lon="3.61318">
        <ele>174.33</ele>
        <time>2022-10-03T14:04:43.000Z</time>
      </trkpt>
      <trkpt lat="49.49719" lon="3.61299">
        <ele>174.23</ele>
        <time>2022-10-03T14:04:53.000Z</time>
      </trkpt>
      <trkpt lat="49.49715" lon="3.61286">
        <ele>173.78</ele>
        <time>2022-10-03T14:05:02.944Z</time>
      </trkpt>
      <trkpt lat="49.4971" lon="3.61272">
        <ele>173.35</ele>
        <time>2022-10-03T14:05:13.000Z</time>
      </trkpt>
      <trkpt lat="49.4971" lon="3.61256">
        <ele>172.82</ele>
        <time>2022-10-03T14:05:23.123Z</time>
      </trkpt>
      <trkpt lat="49.49707" lon="3.61236">
        <ele>172.23</ele>
        <time>2022-10-03T14:05:32.683Z</time>
      </trkpt>
      <trkpt lat="49.49704" lon="3.61221">
        <ele>171.68</ele>
        <time>2022-10-03T14:05:41.764Z</time>
      </trkpt>
      <trkpt lat="49.49698" lon="3.61203">
        <ele>171.7</ele>
        <time>2022-10-03T14:05:50.882Z</time>
      </trkpt>
      <trkpt lat="49.49694" lon="3.61188">
        <ele>171.77</ele>
        <time>2022-10-03T14:06:00.000Z</time>
      </trkpt>
      <trkpt lat="49.49691" lon="3.61172">
        <ele>171.5</ele>
        <time>2022-10-03T14:06:10.000Z</time>
      </trkpt>
      <trkpt lat="49.49688" lon="3.61159">
        <ele>171.14</ele>
        <time>2022-10-03T14:06:20.000Z</time>
      </trkpt>
      <trkpt lat="49.49688" lon="3.61144">
        <ele>170.98</ele>
        <time>2022-10-03T14:06:29.063Z</time>
      </trkpt>
      <trkpt lat="49.49688" lon="3.6113">
        <ele>171.05</ele>
        <time>2022-10-03T14:06:38.404Z</time>
      </trkpt>
      <trkpt lat="49.49686" lon="3.61115">
        <ele>171.42</ele>
        <time>2022-10-03T14:06:48.103Z</time>
      </trkpt>
      <trkpt lat="49.49682" lon="3.61102">
        <ele>171.73</ele>
        <time>2022-10-03T14:06:58.000Z</time>
      </trkpt>
      <trkpt lat="49.4968" lon="3.61086">
        <ele>172.5</ele>
        <time>2022-10-03T14:07:09.000Z</time>
      </trkpt>
      <trkpt lat="49.49684" lon="3.61077">
        <ele>173.23</ele>
        <time>2022-10-03T14:07:19.000Z</time>
      </trkpt>
      <trkpt lat="49.49687" lon="3.61076">
        <ele>173.98</ele>
        <time>2022-10-03T14:07:29.000Z</time>
      </trkpt>
      <trkpt lat="49.49693" lon="3.6107">
        <ele>174.32</ele>
        <time>2022-10-03T14:07:39.103Z</time>
      </trkpt>
      <trkpt lat="49.49699" lon="3.61067">
        <ele>174.23</ele>
        <time>2022-10-03T14:07:48.443Z</time>
      </trkpt>
      <trkpt lat="49.49704" lon="3.61063">
        <ele>173.86</ele>
        <time>2022-10-03T14:07:59.000Z</time>
      </trkpt>
      <trkpt lat="49.49711" lon="3.61057">
        <ele>173.16</ele>
        <time>2022-10-03T14:08:08.024Z</time>
      </trkpt>
      <trkpt lat="49.49713" lon="3.61052">
        <ele>172.91</ele>
        <time>2022-10-03T14:08:18.000Z</time>
      </trkpt>
      <trkpt lat="49.49714" lon="3.61051">
        <ele>173.95</ele>
        <time>2022-10-03T14:08:33.000Z</time>
      </trkpt>
      <trkpt lat="49.49725" lon="3.61042">
        <ele>173.89</ele>
        <time>2022-10-03T14:08:43.000Z</time>
      </trkpt>
      <trkpt lat="49.49732" lon="3.61033">
        <ele>173.3</ele>
        <time>2022-10-03T14:08:53.000Z</time>
      </trkpt>
      <trkpt lat="49.49731" lon="3.61035">
        <ele>173.09</ele>
        <time>2022-10-03T14:09:03.000Z</time>
      </trkpt>
      <trkpt lat="49.49732" lon="3.61032">
        <ele>171.81</ele>
        <time>2022-10-03T14:09:18.000Z</time>
      </trkpt>
      <trkpt lat="49.49735" lon="3.61023">
        <ele>172.12</ele>
        <time>2022-10-03T14:09:28.000Z</time>
      </trkpt>
      <trkpt lat="49.49729" lon="3.61013">
        <ele>172.77</ele>
        <time>2022-10-03T14:09:37.366Z</time>
      </trkpt>
      <trkpt lat="49.49727" lon="3.61004">
        <ele>172.74</ele>
        <time>2022-10-03T14:09:47.046Z</time>
      </trkpt>
      <trkpt lat="49.49729" lon="3.6099">
        <ele>172.54</ele>
        <time>2022-10-03T14:09:56.266Z</time>
      </trkpt>
      <trkpt lat="49.49732" lon="3.60979">
        <ele>172.24</ele>
        <time>2022-10-03T14:10:07.000Z</time>
      </trkpt>
      <trkpt lat="49.49733" lon="3.60975">
        <ele>171.94</ele>
        <time>2022-10-03T14:10:16.787Z</time>
      </trkpt>
      <trkpt lat="49.49737" lon="3.60967">
        <ele>171.57</ele>
        <time>2022-10-03T14:10:26.000Z</time>
      </trkpt>
      <trkpt lat="49.4974" lon="3.60964">
        <ele>171.29</ele>
        <time>2022-10-03T14:10:36.000Z</time>
      </trkpt>
      <trkpt lat="49.49748" lon="3.60963">
        <ele>170.59</ele>
        <time>2022-10-03T14:10:46.000Z</time>
      </trkpt>
      <trkpt lat="49.49757" lon="3.60964">
        <ele>169.7</ele>
        <time>2022-10-03T14:10:56.007Z</time>
      </trkpt>
      <trkpt lat="49.49763" lon="3.60972">
        <ele>168.02</ele>
        <time>2022-10-03T14:11:05.946Z</time>
      </trkpt>
      <trkpt lat="49.49772" lon="3.60972">
        <ele>166.21</ele>
        <time>2022-10-03T14:11:15.000Z</time>
      </trkpt>
      <trkpt lat="49.49785" lon="3.60973">
        <ele>165.12</ele>
        <time>2022-10-03T14:11:25.000Z</time>
      </trkpt>
      <trkpt lat="49.49796" lon="3.60974">
        <ele>164.97</ele>
        <time>2022-10-03T14:11:35.000Z</time>
      </trkpt>
      <trkpt lat="49.4981" lon="3.60982">
        <ele>163.49</ele>
        <time>2022-10-03T14:11:44.547Z</time>
      </trkpt>
      <trkpt lat="49.49826" lon="3.60989">
        <ele>162.09</ele>
        <time>2022-10-03T14:11:53.827Z</time>
      </trkpt>
      <trkpt lat="49.4983" lon="3.60989">
        <ele>161.46</ele>
        <time>2022-10-03T14:12:03.247Z</time>
      </trkpt>
      <trkpt lat="49.49837" lon="3.60991">
        <ele>160.9</ele>
        <time>2022-10-03T14:12:12.816Z</time>
      </trkpt>
      <trkpt lat="49.49843" lon="3.60992">
        <ele>161.06</ele>
        <time>2022-10-03T14:12:22.098Z</time>
      </trkpt>
      <trkpt lat="49.49851" lon="3.60996">
        <ele>161.36</ele>
        <time>2022-10-03T14:12:31.487Z</time>
      </trkpt>
      <trkpt lat="49.49861" lon="3.60999">
        <ele>161.54</ele>
        <time>2022-10-03T14:12:40.527Z</time>
      </trkpt>
      <trkpt lat="49.49872" lon="3.61001">
        <ele>161.46</ele>
        <time>2022-10-03T14:12:50.026Z</time>
      </trkpt>
      <trkpt lat="49.49885" lon="3.61006">
        <ele>161.24</ele>
        <time>2022-10-03T14:12:59.093Z</time>
      </trkpt>
      <trkpt lat="49.49901" lon="3.61006">
        <ele>160.12</ele>
        <time>2022-10-03T14:13:09.000Z</time>
      </trkpt>
      <trkpt lat="49.49908" lon="3.61006">
        <ele>158.96</ele>
        <time>2022-10-03T14:13:18.027Z</time>
      </trkpt>
      <trkpt lat="49.49912" lon="3.61003">
        <ele>158.03</ele>
        <time>2022-10-03T14:13:27.415Z</time>
      </trkpt>
      <trkpt lat="49.49918" lon="3.61">
        <ele>156.93</ele>
        <time>2022-10-03T14:13:36.815Z</time>
      </trkpt>
      <trkpt lat="49.49922" lon="3.60998">
        <ele>155.5</ele>
        <time>2022-10-03T14:13:46.000Z</time>
      </trkpt>
      <trkpt lat="49.49934" lon="3.60997">
        <ele>155.2</ele>
        <time>2022-10-03T14:13:55.674Z</time>
      </trkpt>
      <trkpt lat="49.49949" lon="3.60995">
        <ele>154.68</ele>
        <time>2022-10-03T14:14:05.000Z</time>
      </trkpt>
      <trkpt lat="49.49961" lon="3.60993">
        <ele>154.45</ele>
        <time>2022-10-03T14:14:14.094Z</time>
      </trkpt>
      <trkpt lat="49.49969" lon="3.6099">
        <ele>154.12</ele>
        <time>2022-10-03T14:14:23.175Z</time>
      </trkpt>
      <trkpt lat="49.4997" lon="3.60981">
        <ele>153.81</ele>
        <time>2022-10-03T14:14:32.394Z</time>
      </trkpt>
      <trkpt lat="49.49978" lon="3.60972">
        <ele>153.13</ele>
        <time>2022-10-03T14:14:41.435Z</time>
      </trkpt>
      <trkpt lat="49.4999" lon="3.60966">
        <ele>152.34</ele>
        <time>2022-10-03T14:14:50.916Z</time>
      </trkpt>
      <trkpt lat="49.49998" lon="3.60952">
        <ele>150.57</ele>
        <time>2022-10-03T14:15:00.295Z</time>
      </trkpt>
      <trkpt lat="49.50002" lon="3.60941">
        <ele>150.17</ele>
        <time>2022-10-03T14:15:09.365Z</time>
      </trkpt>
      <trkpt lat="49.50001" lon="3.60927">
        <ele>149.47</ele>
        <time>2022-10-03T14:15:18.834Z</time>
      </trkpt>
      <trkpt lat="49.49999" lon="3.60913">
        <ele>148.76</ele>
        <time>2022-10-03T14:15:28.314Z</time>
      </trkpt>
      <trkpt lat="49.49999" lon="3.60902">
        <ele>147.47</ele>
        <time>2022-10-03T14:15:37.999Z</time>
      </trkpt>
      <trkpt lat="49.50004" lon="3.60885">
        <ele>146.92</ele>
        <time>2022-10-03T14:15:47.576Z</time>
      </trkpt>
      <trkpt lat="49.50007" lon="3.60865">
        <ele>145.99</ele>
        <time>2022-10-03T14:15:56.915Z</time>
      </trkpt>
      <trkpt lat="49.50006" lon="3.60852">
        <ele>145.27</ele>
        <time>2022-10-03T14:16:06.156Z</time>
      </trkpt>
      <trkpt lat="49.50005" lon="3.60842">
        <ele>143.99</ele>
        <time>2022-10-03T14:16:15.254Z</time>
      </trkpt>
      <trkpt lat="49.50009" lon="3.60829">
        <ele>142.08</ele>
        <time>2022-10-03T14:16:24.316Z</time>
      </trkpt>
      <trkpt lat="49.50012" lon="3.6082">
        <ele>140.23</ele>
        <time>2022-10-03T14:16:33.378Z</time>
      </trkpt>
      <trkpt lat="49.50019" lon="3.60805">
        <ele>138.26</ele>
        <time>2022-10-03T14:16:42.534Z</time>
      </trkpt>
      <trkpt lat="49.50022" lon="3.60793">
        <ele>137.05</ele>
        <time>2022-10-03T14:16:51.999Z</time>
      </trkpt>
      <trkpt lat="49.50025" lon="3.60787">
        <ele>136.06</ele>
        <time>2022-10-03T14:17:01.254Z</time>
      </trkpt>
      <trkpt lat="49.50032" lon="3.60784">
        <ele>134.51</ele>
        <time>2022-10-03T14:17:10.999Z</time>
      </trkpt>
      <trkpt lat="49.50038" lon="3.6079">
        <ele>133.87</ele>
        <time>2022-10-03T14:17:20.999Z</time>
      </trkpt>
      <trkpt lat="49.50045" lon="3.60803">
        <ele>133.08</ele>
        <time>2022-10-03T14:17:30.075Z</time>
      </trkpt>
      <trkpt lat="49.50053" lon="3.6081">
        <ele>132.42</ele>
        <time>2022-10-03T14:17:39.654Z</time>
      </trkpt>
      <trkpt lat="49.5006" lon="3.60811">
        <ele>132.81</ele>
        <time>2022-10-03T14:17:49.195Z</time>
      </trkpt>
      <trkpt lat="49.5007" lon="3.60815">
        <ele>133.1</ele>
        <time>2022-10-03T14:17:58.294Z</time>
      </trkpt>
      <trkpt lat="49.50081" lon="3.60818">
        <ele>132.72</ele>
        <time>2022-10-03T14:18:07.640Z</time>
      </trkpt>
      <trkpt lat="49.50088" lon="3.60824">
        <ele>132.08</ele>
        <time>2022-10-03T14:18:16.999Z</time>
      </trkpt>
      <trkpt lat="49.50097" lon="3.60821">
        <ele>131.74</ele>
        <time>2022-10-03T14:18:26.016Z</time>
      </trkpt>
      <trkpt lat="49.50102" lon="3.60824">
        <ele>131.07</ele>
        <time>2022-10-03T14:18:35.394Z</time>
      </trkpt>
      <trkpt lat="49.50108" lon="3.6083">
        <ele>130.21</ele>
        <time>2022-10-03T14:18:44.435Z</time>
      </trkpt>
      <trkpt lat="49.50119" lon="3.60839">
        <ele>129.53</ele>
        <time>2022-10-03T14:18:53.895Z</time>
      </trkpt>
      <trkpt lat="49.50125" lon="3.60841">
        <ele>129.07</ele>
        <time>2022-10-03T14:19:03.494Z</time>
      </trkpt>
      <trkpt lat="49.50128" lon="3.6084">
        <ele>128.25</ele>
        <time>2022-10-03T14:19:12.574Z</time>
      </trkpt>
      <trkpt lat="49.50134" lon="3.60845">
        <ele>126.64</ele>
        <time>2022-10-03T14:19:21.875Z</time>
      </trkpt>
      <trkpt lat="49.50145" lon="3.60854">
        <ele>125.96</ele>
        <time>2022-10-03T14:19:31.365Z</time>
      </trkpt>
      <trkpt lat="49.5015" lon="3.60859">
        <ele>124.95</ele>
        <time>2022-10-03T14:19:40.575Z</time>
      </trkpt>
      <trkpt lat="49.50155" lon="3.60863">
        <ele>123.14</ele>
        <time>2022-10-03T14:19:50.999Z</time>
      </trkpt>
      <trkpt lat="49.50163" lon="3.6087">
        <ele>121.51</ele>
        <time>2022-10-03T14:20:00.999Z</time>
      </trkpt>
      <trkpt lat="49.50181" lon="3.60872">
        <ele>120.58</ele>
        <time>2022-10-03T14:20:10.095Z</time>
      </trkpt>
      <trkpt lat="49.50189" lon="3.6087">
        <ele>119.45</ele>
        <time>2022-10-03T14:20:19.999Z</time>
      </trkpt>
      <trkpt lat="49.50195" lon="3.60871">
        <ele>117.41</ele>
        <time>2022-10-03T14:20:29.255Z</time>
      </trkpt>
      <trkpt lat="49.50205" lon="3.6087">
        <ele>115.65</ele>
        <time>2022-10-03T14:20:38.446Z</time>
      </trkpt>
      <trkpt lat="49.50218" lon="3.60875">
        <ele>114.03</ele>
        <time>2022-10-03T14:20:47.575Z</time>
      </trkpt>
      <trkpt lat="49.50225" lon="3.60881">
        <ele>112.8</ele>
        <time>2022-10-03T14:20:56.999Z</time>
      </trkpt>
      <trkpt lat="49.50231" lon="3.6089">
        <ele>111.61</ele>
        <time>2022-10-03T14:21:06.496Z</time>
      </trkpt>
      <trkpt lat="49.50238" lon="3.60902">
        <ele>109.87</ele>
        <time>2022-10-03T14:21:15.999Z</time>
      </trkpt>
      <trkpt lat="49.5024" lon="3.60917">
        <ele>107.95</ele>
        <time>2022-10-03T14:21:25.336Z</time>
      </trkpt>
      <trkpt lat="49.50238" lon="3.60935">
        <ele>106.32</ele>
        <time>2022-10-03T14:21:34.495Z</time>
      </trkpt>
      <trkpt lat="49.50236" lon="3.60957">
        <ele>104.89</ele>
        <time>2022-10-03T14:21:43.999Z</time>
      </trkpt>
      <trkpt lat="49.50232" lon="3.60977">
        <ele>104.09</ele>
        <time>2022-10-03T14:21:53.334Z</time>
      </trkpt>
      <trkpt lat="49.50231" lon="3.60991">
        <ele>82.86</ele>
        <time>2022-10-03T14:22:02.999Z</time>
      </trkpt>
      <trkpt lat="49.50232" lon="3.6099">
        <ele>82.01</ele>
        <time>2022-10-03T14:22:13.999Z</time>
      </trkpt>
      <trkpt lat="49.50236" lon="3.60992">
        <ele>82.76</ele>
        <time>2022-10-03T14:22:23.999Z</time>
      </trkpt>
      <trkpt lat="49.50236" lon="3.60994">
        <ele>81.96</ele>
        <time>2022-10-03T14:22:33.999Z</time>
      </trkpt>
      <trkpt lat="49.50239" lon="3.60988">
        <ele>82.76</ele>
        <time>2022-10-03T14:22:43.116Z</time>
      </trkpt>
      <trkpt lat="49.5025" lon="3.60983">
        <ele>81.96</ele>
        <time>2022-10-03T14:22:52.436Z</time>
      </trkpt>
      <trkpt lat="49.50262" lon="3.60993">
        <ele>80.99</ele>
        <time>2022-10-03T14:23:01.795Z</time>
      </trkpt>
      <trkpt lat="49.50267" lon="3.60998">
        <ele>80.96</ele>
        <time>2022-10-03T14:23:10.995Z</time>
      </trkpt>
      <trkpt lat="49.50276" lon="3.60998">
        <ele>80.96</ele>
        <time>2022-10-03T14:23:20.653Z</time>
      </trkpt>
      <trkpt lat="49.50286" lon="3.61">
        <ele>79.76</ele>
        <time>2022-10-03T14:23:29.999Z</time>
      </trkpt>
      <trkpt lat="49.50288" lon="3.61002">
        <ele>79.75</ele>
        <time>2022-10-03T14:23:39.999Z</time>
      </trkpt>
      <trkpt lat="49.50289" lon="3.61">
        <ele>79.66</ele>
        <time>2022-10-03T14:23:49.999Z</time>
      </trkpt>
      <trkpt lat="49.50292" lon="3.61">
        <ele>79.66</ele>
        <time>2022-10-03T14:23:59.999Z</time>
      </trkpt>
      <trkpt lat="49.50287" lon="3.61004">
        <ele>79.76</ele>
        <time>2022-10-03T14:24:09.999Z</time>
      </trkpt>
      <trkpt lat="49.50291" lon="3.61006">
        <ele>78.87</ele>
        <time>2022-10-03T14:24:19.999Z</time>
      </trkpt>
      <trkpt lat="49.50288" lon="3.60998">
        <ele>80.06</ele>
        <time>2022-10-03T14:24:29.999Z</time>
      </trkpt>
      <trkpt lat="49.50288" lon="3.60993">
        <ele>79.76</ele>
        <time>2022-10-03T14:24:39.999Z</time>
      </trkpt>
      <trkpt lat="49.50291" lon="3.60995">
        <ele>79.76</ele>
        <time>2022-10-03T14:27:41.999Z</time>
      </trkpt>
      <trkpt lat="49.50292" lon="3.60998">
        <ele>80.95</ele>
        <time>2022-10-03T14:27:51.535Z</time>
      </trkpt>
      <trkpt lat="49.50281" lon="3.60999">
        <ele>80.96</ele>
        <time>2022-10-03T14:28:00.999Z</time>
      </trkpt>
      <trkpt lat="49.50268" lon="3.61001">
        <ele>80.96</ele>
        <time>2022-10-03T14:28:10.116Z</time>
      </trkpt>
      <trkpt lat="49.50259" lon="3.6101">
        <ele>81.96</ele>
        <time>2022-10-03T14:28:19.999Z</time>
      </trkpt>
      <trkpt lat="49.50246" lon="3.61017">
        <ele>81.96</ele>
        <time>2022-10-03T14:28:29.514Z</time>
      </trkpt>
      <trkpt lat="49.50233" lon="3.61023">
        <ele>81.96</ele>
        <time>2022-10-03T14:28:38.655Z</time>
      </trkpt>
      <trkpt lat="49.50223" lon="3.61028">
        <ele>85.55</ele>
        <time>2022-10-03T14:28:47.975Z</time>
      </trkpt>
      <trkpt lat="49.5022" lon="3.61031">
        <ele>81.96</ele>
        <time>2022-10-03T14:28:56.999Z</time>
      </trkpt>
      <trkpt lat="49.50214" lon="3.61038">
        <ele>81.96</ele>
        <time>2022-10-03T14:29:06.999Z</time>
      </trkpt>
      <trkpt lat="49.50218" lon="3.61048">
        <ele>81.96</ele>
        <time>2022-10-03T14:29:16.154Z</time>
      </trkpt>
      <trkpt lat="49.50217" lon="3.61059">
        <ele>81.96</ele>
        <time>2022-10-03T14:29:25.642Z</time>
      </trkpt>
      <trkpt lat="49.50218" lon="3.6107">
        <ele>81.96</ele>
        <time>2022-10-03T14:29:34.999Z</time>
      </trkpt>
      <trkpt lat="49.5022" lon="3.61068">
        <ele>81.96</ele>
        <time>2022-10-03T14:29:44.999Z</time>
      </trkpt>
      <trkpt lat="49.50262" lon="3.61074">
        <ele>81.96</ele>
        <time>2022-10-03T14:31:07.577Z</time>
      </trkpt>
      <trkpt lat="49.50218" lon="3.61018">
        <ele>81.96</ele>
        <time>2022-10-03T14:32:46.999Z</time>
      </trkpt>
      <trkpt lat="49.50225" lon="3.61037">
        <ele>81.96</ele>
        <time>2022-10-03T14:32:56.999Z</time>
      </trkpt>
      <trkpt lat="49.50224" lon="3.61038">
        <ele>81.96</ele>
        <time>2022-10-03T14:33:19.304Z</time>
      </trkpt>
      <trkpt lat="49.50218" lon="3.61038">
        <ele>81.96</ele>
        <time>2022-10-03T14:33:28.999Z</time>
      </trkpt>
      <trkpt lat="49.50219" lon="3.61039">
        <ele>81.96</ele>
        <time>2022-10-03T14:33:44.185Z</time>
      </trkpt>
      <trkpt lat="49.50226" lon="3.61039">
        <ele>81.96</ele>
        <time>2022-10-03T14:33:53.999Z</time>
      </trkpt>
      <trkpt lat="49.50231" lon="3.61034">
        <ele>81.96</ele>
        <time>2022-10-03T14:34:03.999Z</time>
      </trkpt>
      <trkpt lat="49.50243" lon="3.61025">
        <ele>81.96</ele>
        <time>2022-10-03T14:34:13.730Z</time>
      </trkpt>
      <trkpt lat="49.50257" lon="3.61017">
        <ele>81.96</ele>
        <time>2022-10-03T14:34:23.384Z</time>
      </trkpt>
      <trkpt lat="49.50268" lon="3.61008">
        <ele>81.02</ele>
        <time>2022-10-03T14:34:32.604Z</time>
      </trkpt>
      <trkpt lat="49.5028" lon="3.61002">
        <ele>81.95</ele>
        <time>2022-10-03T14:34:42.363Z</time>
      </trkpt>
      <trkpt lat="49.50289" lon="3.60996">
        <ele>79.66</ele>
        <time>2022-10-03T14:34:51.403Z</time>
      </trkpt>
      <trkpt lat="49.50297" lon="3.60995">
        <ele>79.76</ele>
        <time>2022-10-03T14:35:00.999Z</time>
      </trkpt>
      <trkpt lat="49.50297" lon="3.60998">
        <ele>79.63</ele>
        <time>2022-10-03T14:35:10.570Z</time>
      </trkpt>
      <trkpt lat="49.50294" lon="3.60996">
        <ele>79.75</ele>
        <time>2022-10-03T14:35:19.999Z</time>
      </trkpt>
      <trkpt lat="49.50295" lon="3.60995">
        <ele>79.76</ele>
        <time>2022-10-03T14:35:31.999Z</time>
      </trkpt>
      <trkpt lat="49.50294" lon="3.60994">
        <ele>79.76</ele>
        <time>2022-10-03T14:35:49.999Z</time>
      </trkpt>
      <trkpt lat="49.50295" lon="3.60994">
        <ele>79.66</ele>
        <time>2022-10-03T14:36:00.999Z</time>
      </trkpt>
      <trkpt lat="49.50297" lon="3.60994">
        <ele>79.76</ele>
        <time>2022-10-03T14:36:26.999Z</time>
      </trkpt>
      <trkpt lat="49.50298" lon="3.60995">
        <ele>79.76</ele>
        <time>2022-10-03T14:36:36.999Z</time>
      </trkpt>
      <trkpt lat="49.50299" lon="3.60994">
        <ele>79.66</ele>
        <time>2022-10-03T14:39:19.999Z</time>
      </trkpt>
      <trkpt lat="49.50297" lon="3.60992">
        <ele>79.76</ele>
        <time>2022-10-03T14:39:58.999Z</time>
      </trkpt>
      <trkpt lat="49.50297" lon="3.60988">
        <ele>79.66</ele>
        <time>2022-10-03T14:40:08.999Z</time>
      </trkpt>
      <trkpt lat="49.50297" lon="3.60991">
        <ele>79.66</ele>
        <time>2022-10-03T14:40:46.999Z</time>
      </trkpt>
      <trkpt lat="49.503" lon="3.6099">
        <ele>79.66</ele>
        <time>2022-10-03T14:40:56.999Z</time>
      </trkpt>
      <trkpt lat="49.50298" lon="3.6099">
        <ele>79.66</ele>
        <time>2022-10-03T14:41:06.999Z</time>
      </trkpt>
      <trkpt lat="49.503" lon="3.60998">
        <ele>79.66</ele>
        <time>2022-10-03T14:41:16.999Z</time>
      </trkpt>
      <trkpt lat="49.50299" lon="3.60995">
        <ele>79.66</ele>
        <time>2022-10-03T14:41:26.999Z</time>
      </trkpt>
      <trkpt lat="49.50299" lon="3.60994">
        <ele>79.66</ele>
        <time>2022-10-03T14:41:41.999Z</time>
      </trkpt>
      <trkpt lat="49.50298" lon="3.60993">
        <ele>79.66</ele>
        <time>2022-10-03T14:41:51.999Z</time>
      </trkpt>
      <trkpt lat="49.50298" lon="3.60994">
        <ele>79.76</ele>
        <time>2022-10-03T14:42:03.999Z</time>
      </trkpt>
      <trkpt lat="49.50303" lon="3.60994">
        <ele>79.76</ele>
        <time>2022-10-03T14:42:13.999Z</time>
      </trkpt>
      <trkpt lat="49.50304" lon="3.60999">
        <ele>79.66</ele>
        <time>2022-10-03T14:42:23.999Z</time>
      </trkpt>
      <trkpt lat="49.50304" lon="3.61004">
        <ele>79.66</ele>
        <time>2022-10-03T14:42:33.999Z</time>
      </trkpt>
      <trkpt lat="49.50298" lon="3.60998">
        <ele>79.66</ele>
        <time>2022-10-03T14:42:43.999Z</time>
      </trkpt>
      <trkpt lat="49.503" lon="3.60996">
        <ele>79.66</ele>
        <time>2022-10-03T14:42:53.999Z</time>
      </trkpt>
      <trkpt lat="49.50301" lon="3.60993">
        <ele>79.86</ele>
        <time>2022-10-03T14:43:03.999Z</time>
      </trkpt>
      <trkpt lat="49.50303" lon="3.60994">
        <ele>79.73</ele>
        <time>2022-10-03T14:44:01.999Z</time>
      </trkpt>
      <trkpt lat="49.50305" lon="3.60997">
        <ele>79.66</ele>
        <time>2022-10-03T14:44:11.999Z</time>
      </trkpt>
      <trkpt lat="49.50305" lon="3.60995">
        <ele>79.66</ele>
        <time>2022-10-03T14:44:31.999Z</time>
      </trkpt>
      <trkpt lat="49.50307" lon="3.60996">
        <ele>79.66</ele>
        <time>2022-10-03T14:44:41.999Z</time>
      </trkpt>
      <trkpt lat="49.50298" lon="3.60989">
        <ele>79.76</ele>
        <time>2022-10-03T14:44:51.999Z</time>
      </trkpt>
      <trkpt lat="49.50304" lon="3.60984">
        <ele>79.66</ele>
        <time>2022-10-03T14:45:01.999Z</time>
      </trkpt>
      <trkpt lat="49.50307" lon="3.60984">
        <ele>79.66</ele>
        <time>2022-10-03T14:45:11.999Z</time>
      </trkpt>
      <trkpt lat="49.50308" lon="3.60982">
        <ele>79.76</ele>
        <time>2022-10-03T14:45:21.999Z</time>
      </trkpt>
      <trkpt lat="49.50309" lon="3.6098">
        <ele>79.66</ele>
        <time>2022-10-03T14:45:31.999Z</time>
      </trkpt>
      <trkpt lat="49.5031" lon="3.60979">
        <ele>79.66</ele>
        <time>2022-10-03T14:45:41.999Z</time>
      </trkpt>
      <trkpt lat="49.50311" lon="3.60979">
        <ele>79.66</ele>
        <time>2022-10-03T14:45:52.999Z</time>
      </trkpt>
      <trkpt lat="49.50303" lon="3.60997">
        <ele>79.66</ele>
        <time>2022-10-03T14:46:02.999Z</time>
      </trkpt>
      <trkpt lat="49.50304" lon="3.60991">
        <ele>79.66</ele>
        <time>2022-10-03T14:46:12.999Z</time>
      </trkpt>
      <trkpt lat="49.50304" lon="3.60987">
        <ele>79.66</ele>
        <time>2022-10-03T14:46:22.999Z</time>
      </trkpt>
      <trkpt lat="49.50307" lon="3.60988">
        <ele>79.56</ele>
        <time>2022-10-03T14:51:07.999Z</time>
      </trkpt>
      <trkpt lat="49.50306" lon="3.60987">
        <ele>79.56</ele>
        <time>2022-10-03T14:51:17.999Z</time>
      </trkpt>
      <trkpt lat="49.503" lon="3.60988">
        <ele>79.65</ele>
        <time>2022-10-03T14:51:27.999Z</time>
      </trkpt>
      <trkpt lat="49.50298" lon="3.6099">
        <ele>78.86</ele>
        <time>2022-10-03T14:51:37.999Z</time>
      </trkpt>
      <trkpt lat="49.50296" lon="3.60994">
        <ele>79.56</ele>
        <time>2022-10-03T14:51:47.999Z</time>
      </trkpt>
      <trkpt lat="49.50293" lon="3.60993">
        <ele>79.66</ele>
        <time>2022-10-03T14:51:57.999Z</time>
      </trkpt>
      <trkpt lat="49.50292" lon="3.60992">
        <ele>79.56</ele>
        <time>2022-10-03T14:52:07.999Z</time>
      </trkpt>
      <trkpt lat="49.50292" lon="3.60991">
        <ele>78.86</ele>
        <time>2022-10-03T14:52:21.999Z</time>
      </trkpt>
      <trkpt lat="49.50291" lon="3.60988">
        <ele>79.56</ele>
        <time>2022-10-03T14:52:31.999Z</time>
      </trkpt>
      <trkpt lat="49.50289" lon="3.60989">
        <ele>79.66</ele>
        <time>2022-10-03T14:52:41.999Z</time>
      </trkpt>
      <trkpt lat="49.50289" lon="3.60991">
        <ele>79.66</ele>
        <time>2022-10-03T14:52:51.999Z</time>
      </trkpt>
      <trkpt lat="49.50289" lon="3.60997">
        <ele>79.65</ele>
        <time>2022-10-03T14:53:01.999Z</time>
      </trkpt>
      <trkpt lat="49.50288" lon="3.60997">
        <ele>79.56</ele>
        <time>2022-10-03T14:53:11.999Z</time>
      </trkpt>
      <trkpt lat="49.50294" lon="3.60993">
        <ele>79.66</ele>
        <time>2022-10-03T14:53:21.999Z</time>
      </trkpt>
      <trkpt lat="49.50293" lon="3.60995">
        <ele>79.66</ele>
        <time>2022-10-03T14:53:31.999Z</time>
      </trkpt>
      <trkpt lat="49.50293" lon="3.60992">
        <ele>79.56</ele>
        <time>2022-10-03T14:53:41.999Z</time>
      </trkpt>
      <trkpt lat="49.50292" lon="3.60993">
        <ele>78.86</ele>
        <time>2022-10-03T14:53:52.999Z</time>
      </trkpt>
      <trkpt lat="49.50289" lon="3.60992">
        <ele>79.56</ele>
        <time>2022-10-03T14:54:02.999Z</time>
      </trkpt>
      <trkpt lat="49.5029" lon="3.60993">
        <ele>79.03</ele>
        <time>2022-10-03T14:54:43.999Z</time>
      </trkpt>
      <trkpt lat="49.50289" lon="3.60994">
        <ele>79.55</ele>
        <time>2022-10-03T14:54:53.999Z</time>
      </trkpt>
      <trkpt lat="49.5029" lon="3.60993">
        <ele>79.56</ele>
        <time>2022-10-03T14:55:15.999Z</time>
      </trkpt>
      <trkpt lat="49.50294" lon="3.60994">
        <ele>78.86</ele>
        <time>2022-10-03T14:55:25.999Z</time>
      </trkpt>
      <trkpt lat="49.50295" lon="3.60996">
        <ele>79.66</ele>
        <time>2022-10-03T14:55:35.999Z</time>
      </trkpt>
      <trkpt lat="49.50301" lon="3.60991">
        <ele>78.86</ele>
        <time>2022-10-03T14:55:45.999Z</time>
      </trkpt>
      <trkpt lat="49.50303" lon="3.60991">
        <ele>79.55</ele>
        <time>2022-10-03T14:55:55.999Z</time>
      </trkpt>
      <trkpt lat="49.50302" lon="3.60991">
        <ele>79.66</ele>
        <time>2022-10-03T14:56:07.999Z</time>
      </trkpt>
      <trkpt lat="49.50297" lon="3.60995">
        <ele>79.03</ele>
        <time>2022-10-03T14:56:17.999Z</time>
      </trkpt>
      <trkpt lat="49.50298" lon="3.60993">
        <ele>79.66</ele>
        <time>2022-10-03T14:59:54.999Z</time>
      </trkpt>
      <trkpt lat="49.50298" lon="3.61004">
        <ele>79.63</ele>
        <time>2022-10-03T15:00:04.999Z</time>
      </trkpt>
      <trkpt lat="49.50298" lon="3.61001">
        <ele>79.66</ele>
        <time>2022-10-03T15:00:14.999Z</time>
      </trkpt>
      <trkpt lat="49.50298" lon="3.60996">
        <ele>79.56</ele>
        <time>2022-10-03T15:00:54.999Z</time>
      </trkpt>
      <trkpt lat="49.50298" lon="3.60993">
        <ele>79.76</ele>
        <time>2022-10-03T15:01:04.999Z</time>
      </trkpt>
      <trkpt lat="49.50293" lon="3.60989">
        <ele>79.66</ele>
        <time>2022-10-03T15:01:14.999Z</time>
      </trkpt>
      <trkpt lat="49.50292" lon="3.60986">
        <ele>79.66</ele>
        <time>2022-10-03T15:01:24.999Z</time>
      </trkpt>
      <trkpt lat="49.50292" lon="3.60986">
        <ele>79.66</ele>
        <time>2022-10-03T15:01:28.999Z</time>
      </trkpt>
    </trkseg>
  </trk>
</gpx>